Observation data for Snyder SSW on 07/10/2020      Previous  Date  Next       Current Mesonet Observations  Soil Data  Daily Summary Page  Observations in Plain Language
KWT1 100500Z 16012KT 31/19 A2992 RMK A01 T03060188  RH  050%=      5-min Rain = 0
KWT1 100501Z 16013KT 31/19 A2992 RMK A01 T03050188  RH  050%=      5-min Rain = 0
KWT1 100502Z 16011KT 31/19 A2992 RMK A01 T03050189  RH  050%=      5-min Rain = 0
KWT1 100503Z 16009KT 31/19 A2992 RMK A01 T03050189  RH  050%=      5-min Rain = 0
KWT1 100504Z 16011KT 31/19 A2992 RMK A01 T03050189  RH  050%=      5-min Rain = 0
KWT1 100505Z 16009KT 30/19 A2992 RMK A01 T03040189  RH  050%=      5-min Rain = 0
KWT1 100506Z 16009KT 30/19 A2992 RMK A01 T03040190  RH  050%=      5-min Rain = 0
KWT1 100507Z 16010KT 30/19 A2992 RMK A01 T03030190  RH  051%=      5-min Rain = 0
KWT1 100508Z 16009KT 30/19 A2992 RMK A01 T03030190  RH  051%=      5-min Rain = 0
KWT1 100509Z 16011KT 30/19 A2992 RMK A01 T03030190  RH  051%=      5-min Rain = 0
KWT1 100510Z 16009KT 30/19 A2992 RMK A01 T03020190  RH  051%=      5-min Rain = 0
KWT1 100511Z 16010KT 30/19 A2992 RMK A01 T03020191  RH  051%=      5-min Rain = 0
KWT1 100512Z 17011KT 30/19 A2992 RMK A01 T03020191  RH  051%=      5-min Rain = 0
KWT1 100513Z 17011KT 30/19 A2992 RMK A01 T03020191  RH  052%=      5-min Rain = 0
KWT1 100514Z 17011KT 30/19 A2992 RMK A01 T03020191  RH  052%=      5-min Rain = 0
KWT1 100515Z 16012KT 30/19 A2992 RMK A01 T03020192  RH  052%=      5-min Rain = 0
KWT1 100516Z 17011KT 30/19 A2992 RMK A01 T03010192  RH  052%=      5-min Rain = 0
KWT1 100517Z 17009KT 30/19 A2993 RMK A01 T03010192  RH  052%=      5-min Rain = 0
KWT1 100518Z 17010KT 30/19 A2993 RMK A01 T03010192  RH  052%=      5-min Rain = 0
KWT1 100519Z 17009KT 30/19 A2993 RMK A01 T03000193  RH  052%=      5-min Rain = 0
KWT1 100520Z 17010KT 30/19 A2993 RMK A01 T03000193  RH  053%=      5-min Rain = 0
KWT1 100521Z 17008KT 30/19 A2992 RMK A01 T02990193  RH  053%=      5-min Rain = 0
KWT1 100522Z 17009KT 30/19 A2992 RMK A01 T02990193  RH  053%=      5-min Rain = 0
KWT1 100523Z 17009KT 30/19 A2992 RMK A01 T02990193  RH  053%=      5-min Rain = 0
KWT1 100524Z 17010KT 30/19 A2992 RMK A01 T02980193  RH  053%=      5-min Rain = 0
KWT1 100525Z 17010KT 30/19 A2993 RMK A01 T02980194  RH  054%=      5-min Rain = 0
KWT1 100526Z 17009KT 30/19 A2992 RMK A01 T02980194  RH  054%=      5-min Rain = 0
KWT1 100527Z 17008KT 30/19 A2993 RMK A01 T02970194  RH  054%=      5-min Rain = 0
KWT1 100528Z 17009G14KT 30/19 A2993 RMK A01 T02970194  RH  054%=      5-min Rain = 0
KWT1 100529Z 17009KT 30/19 A2993 RMK A01 T02970194  RH  054%=      5-min Rain = 0
KWT1 100530Z 17009KT 30/19 A2993 RMK A01 T02970194  RH  054%=      5-min Rain = 0
KWT1 100531Z 16008KT 30/19 A2993 RMK A01 T02970194  RH  054%=      5-min Rain = 0
KWT1 100532Z 17009KT 30/19 A2993 RMK A01 T02960194  RH  054%=      5-min Rain = 0
KWT1 100533Z 17010KT 30/19 A2993 RMK A01 T02960194  RH  054%=      5-min Rain = 0
KWT1 100534Z 17010KT 30/19 A2993 RMK A01 T02960194  RH  054%=      5-min Rain = 0
KWT1 100535Z 17010KT 30/19 A2993 RMK A01 T02960194  RH  054%=      5-min Rain = 0
KWT1 100536Z 17009KT 30/20 A2993 RMK A01 T02960195  RH  055%=      5-min Rain = 0
KWT1 100537Z 16009KT 30/20 A2993 RMK A01 T02950195  RH  055%=      5-min Rain = 0
KWT1 100538Z 17010KT 30/20 A2993 RMK A01 T02950195  RH  055%=      5-min Rain = 0
KWT1 100539Z 16009KT 30/20 A2994 RMK A01 T02950195  RH  055%=      5-min Rain = 0
KWT1 100540Z 16009KT 29/20 A2994 RMK A01 T02940195  RH  055%=      5-min Rain = 0
KWT1 100541Z 16008KT 29/20 A2994 RMK A01 T02940195  RH  055%=      5-min Rain = 0
KWT1 100542Z 17009KT 29/20 A2994 RMK A01 T02940195  RH  055%=      5-min Rain = 0
KWT1 100543Z 16008KT 29/20 A2994 RMK A01 T02930195  RH  055%=      5-min Rain = 0
KWT1 100544Z 16009KT 29/20 A2994 RMK A01 T02940195  RH  056%=      5-min Rain = 0
KWT1 100545Z 16008KT 29/20 A2994 RMK A01 T02930195  RH  056%=      5-min Rain = 0
KWT1 100546Z 17010KT 29/20 A2994 RMK A01 T02930195  RH  056%=      5-min Rain = 0
KWT1 100547Z 16009KT 29/20 A2994 RMK A01 T02930196  RH  056%=      5-min Rain = 0
KWT1 100548Z 17011KT 29/20 A2994 RMK A01 T02930196  RH  056%=      5-min Rain = 0
KWT1 100549Z 17010KT 29/20 A2994 RMK A01 T02930196  RH  056%=      5-min Rain = 0
KWT1 100550Z 17010KT 29/20 A2994 RMK A01 T02930196  RH  056%=      5-min Rain = 0
KWT1 100551Z 17010KT 29/20 A2994 RMK A01 T02940196  RH  056%=      5-min Rain = 0
KWT1 100552Z 17010KT 29/20 A2994 RMK A01 T02940196  RH  056%=      5-min Rain = 0
KWT1 100553Z 17008KT 29/20 A2994 RMK A01 T02930196  RH  056%=      5-min Rain = 0
KWT1 100554Z 17009KT 29/20 A2994 RMK A01 T02930196  RH  056%=      5-min Rain = 0
KWT1 100555Z 18010KT 29/20 A2994 RMK A01 T02930197  RH  056%=      5-min Rain = 0
KWT1 100556Z 17010KT 29/20 A2994 RMK A01 T02930197  RH  056%=      5-min Rain = 0
KWT1 100557Z 18009KT 29/20 A2994 RMK A01 T02930197  RH  056%=      5-min Rain = 0
KWT1 100558Z 17009KT 29/20 A2994 RMK A01 T02930197  RH  056%=      5-min Rain = 0
KWT1 100559Z 17009KT 29/20 A2994 RMK A01 T02930197  RH  056%=      5-min Rain = 0
KWT1 100600Z 17010KT 29/20 A2994 RMK A01 T02930197  RH  056%=      5-min Rain = 0
KWT1 100601Z 17009KT 29/20 A2994 RMK A01 T02930197  RH  057%=      5-min Rain = 0
KWT1 100602Z 17010KT 29/20 A2994 RMK A01 T02930197  RH  057%=      5-min Rain = 0
KWT1 100603Z 17010KT 29/20 A2994 RMK A01 T02930198  RH  057%=      5-min Rain = 0
KWT1 100604Z 16011KT 29/20 A2994 RMK A01 T02920197  RH  057%=      5-min Rain = 0
KWT1 100605Z 17011KT 29/20 A2994 RMK A01 T02930198  RH  057%=      5-min Rain = 0
KWT1 100606Z 17011KT 29/20 A2994 RMK A01 T02920198  RH  057%=      5-min Rain = 0
KWT1 100607Z 17011KT 29/20 A2994 RMK A01 T02930198  RH  057%=      5-min Rain = 0
KWT1 100608Z 17009KT 29/20 A2994 RMK A01 T02930198  RH  057%=      5-min Rain = 0
KWT1 100609Z 17011KT 29/20 A2994 RMK A01 T02920198  RH  057%=      5-min Rain = 0
KWT1 100610Z 17012KT 29/20 A2994 RMK A01 T02930199  RH  057%=      5-min Rain = 0
KWT1 100611Z 17012KT 29/20 A2994 RMK A01 T02920198  RH  057%=      5-min Rain = 0
KWT1 100612Z 17011KT 29/20 A2994 RMK A01 T02920198  RH  057%=      5-min Rain = 0
KWT1 100613Z 17010KT 29/20 A2994 RMK A01 T02920198  RH  057%=      5-min Rain = 0
KWT1 100614Z 17010KT 29/20 A2994 RMK A01 T02920198  RH  057%=      5-min Rain = 0
KWT1 100615Z 17009KT 29/20 A2994 RMK A01 T02920199  RH  057%=      5-min Rain = 0
KWT1 100616Z 17011KT 29/20 A2994 RMK A01 T02920199  RH  057%=      5-min Rain = 0
KWT1 100617Z 17010KT 29/20 A2994 RMK A01 T02920198  RH  057%=      5-min Rain = 0
KWT1 100618Z 17010KT 29/20 A2994 RMK A01 T02920199  RH  057%=      5-min Rain = 0
KWT1 100619Z 17011KT 29/20 A2994 RMK A01 T02920198  RH  057%=      5-min Rain = 0
KWT1 100620Z 18010KT 29/20 A2994 RMK A01 T02910198  RH  057%=      5-min Rain = 0
KWT1 100621Z 18012KT 29/20 A2994 RMK A01 T02920199  RH  057%=      5-min Rain = 0
KWT1 100622Z 18010KT 29/20 A2994 RMK A01 T02920199  RH  057%=      5-min Rain = 0
KWT1 100623Z 18010KT 29/20 A2994 RMK A01 T02920199  RH  057%=      5-min Rain = 0
KWT1 100624Z 18010KT 29/20 A2994 RMK A01 T02910198  RH  057%=      5-min Rain = 0
KWT1 100625Z 17011KT 29/20 A2993 RMK A01 T02910198  RH  057%=      5-min Rain = 0
KWT1 100626Z 18011KT 29/20 A2994 RMK A01 T02910198  RH  057%=      5-min Rain = 0
KWT1 100627Z 17011KT 29/20 A2993 RMK A01 T02910199  RH  057%=      5-min Rain = 0
KWT1 100628Z 18012KT 29/20 A2993 RMK A01 T02910198  RH  057%=      5-min Rain = 0
KWT1 100629Z 17010KT 29/20 A2993 RMK A01 T02910198  RH  057%=      5-min Rain = 0
KWT1 100630Z 18012KT 29/20 A2993 RMK A01 T02910198  RH  057%=      5-min Rain = 0
KWT1 100631Z 17011KT 29/20 A2993 RMK A01 T02910198  RH  057%=      5-min Rain = 0
KWT1 100632Z 17010KT 29/20 A2994 RMK A01 T02910198  RH  057%=      5-min Rain = 0
KWT1 100633Z 17011KT 29/20 A2994 RMK A01 T02910198  RH  057%=      5-min Rain = 0
KWT1 100634Z 17011KT 29/20 A2994 RMK A01 T02910198  RH  057%=      5-min Rain = 0
KWT1 100635Z 17011KT 29/20 A2994 RMK A01 T02910198  RH  057%=      5-min Rain = 0
KWT1 100636Z 16010KT 29/20 A2994 RMK A01 T02900198  RH  058%=      5-min Rain = 0
KWT1 100637Z 16011KT 29/20 A2994 RMK A01 T02900198  RH  058%=      5-min Rain = 0
KWT1 100638Z 16010KT 29/20 A2994 RMK A01 T02900199  RH  058%=      5-min Rain = 0
KWT1 100639Z 16009KT 29/20 A2994 RMK A01 T02900199  RH  058%=      5-min Rain = 0
KWT1 100640Z 16009KT 29/20 A2994 RMK A01 T02900199  RH  058%=      5-min Rain = 0
KWT1 100641Z 16010KT 29/20 A2994 RMK A01 T02890199  RH  058%=      5-min Rain = 0
KWT1 100642Z 16010KT 29/20 A2994 RMK A01 T02890199  RH  058%=      5-min Rain = 0
KWT1 100643Z 17011KT 29/20 A2994 RMK A01 T02890199  RH  058%=      5-min Rain = 0
KWT1 100644Z 17011KT 29/20 A2994 RMK A01 T02890199  RH  058%=      5-min Rain = 0
KWT1 100645Z 17010KT 29/20 A2994 RMK A01 T02880198  RH  058%=      5-min Rain = 0
KWT1 100646Z 17009KT 29/20 A2994 RMK A01 T02880198  RH  058%=      5-min Rain = 0
KWT1 100647Z 16009KT 29/20 A2994 RMK A01 T02880198  RH  058%=      5-min Rain = 0
KWT1 100648Z 17010KT 29/20 A2994 RMK A01 T02880198  RH  058%=      5-min Rain = 0
KWT1 100649Z 17009KT 29/20 A2994 RMK A01 T02880198  RH  058%=      5-min Rain = 0
KWT1 100650Z 17009KT 29/20 A2994 RMK A01 T02880199  RH  058%=      5-min Rain = 0
KWT1 100651Z 17010KT 29/20 A2994 RMK A01 T02880198  RH  058%=      5-min Rain = 0
KWT1 100652Z 17008KT 29/20 A2994 RMK A01 T02880199  RH  058%=      5-min Rain = 0
KWT1 100653Z 17009KT 29/20 A2994 RMK A01 T02870198  RH  059%=      5-min Rain = 0
KWT1 100654Z 16010KT 29/20 A2994 RMK A01 T02870198  RH  059%=      5-min Rain = 0
KWT1 100655Z 17010KT 29/20 A2994 RMK A01 T02870198  RH  059%=      5-min Rain = 0
KWT1 100656Z 17011KT 29/20 A2994 RMK A01 T02870198  RH  059%=      5-min Rain = 0
KWT1 100657Z 17008KT 29/20 A2994 RMK A01 T02870199  RH  059%=      5-min Rain = 0
KWT1 100658Z 17010KT 29/20 A2994 RMK A01 T02860198  RH  059%=      5-min Rain = 0
KWT1 100659Z 17010KT 29/20 A2994 RMK A01 T02860198  RH  059%=      5-min Rain = 0
KWT1 100700Z 17009KT 29/20 A2995 RMK A01 T02860198  RH  059%=      5-min Rain = 0
KWT1 100701Z 17009KT 29/20 A2995 RMK A01 T02860198  RH  059%=      5-min Rain = 0
KWT1 100702Z 17010KT 29/20 A2995 RMK A01 T02860198  RH  059%=      5-min Rain = 0
KWT1 100703Z 17011KT 29/20 A2995 RMK A01 T02850198  RH  059%=      5-min Rain = 0
KWT1 100704Z 17011KT 29/20 A2995 RMK A01 T02850198  RH  059%=      5-min Rain = 0
KWT1 100705Z 18008KT 29/20 A2995 RMK A01 T02850198  RH  059%=      5-min Rain = 0
KWT1 100706Z 18010KT 29/20 A2995 RMK A01 T02850198  RH  059%=      5-min Rain = 0
KWT1 100707Z 18008KT 29/20 A2995 RMK A01 T02850198  RH  059%=      5-min Rain = 0
KWT1 100708Z 18010KT 29/20 A2995 RMK A01 T02850198  RH  059%=      5-min Rain = 0
KWT1 100709Z 17012KT 29/20 A2995 RMK A01 T02850198  RH  059%=      5-min Rain = 0
KWT1 100710Z 17011KT 29/20 A2995 RMK A01 T02850198  RH  059%=      5-min Rain = 0
KWT1 100711Z 17008KT 29/20 A2995 RMK A01 T02850198  RH  059%=      5-min Rain = 0
KWT1 100712Z 17009KT 29/20 A2995 RMK A01 T02850198  RH  059%=      5-min Rain = 0
KWT1 100713Z 17009KT 29/20 A2995 RMK A01 T02850198  RH  059%=      5-min Rain = 0
KWT1 100714Z 17009KT 28/20 A2995 RMK A01 T02840198  RH  059%=      5-min Rain = 0
KWT1 100715Z 18009KT 28/20 A2995 RMK A01 T02840198  RH  059%=      5-min Rain = 0
KWT1 100716Z 18008KT 28/20 A2995 RMK A01 T02840198  RH  059%=      5-min Rain = 0
KWT1 100717Z 18007KT 28/20 A2995 RMK A01 T02840198  RH  060%=      5-min Rain = 0
KWT1 100718Z 18008KT 28/20 A2995 RMK A01 T02830198  RH  060%=      5-min Rain = 0
KWT1 100719Z 17010KT 28/20 A2995 RMK A01 T02830198  RH  060%=      5-min Rain = 0
KWT1 100720Z 18010KT 28/20 A2995 RMK A01 T02830198  RH  060%=      5-min Rain = 0
KWT1 100721Z 17009KT 28/20 A2995 RMK A01 T02830197  RH  060%=      5-min Rain = 0
KWT1 100722Z 17010KT 28/20 A2995 RMK A01 T02830197  RH  060%=      5-min Rain = 0
KWT1 100723Z 17009KT 28/20 A2995 RMK A01 T02830197  RH  060%=      5-min Rain = 0
KWT1 100724Z 17008KT 28/20 A2995 RMK A01 T02830197  RH  060%=      5-min Rain = 0
KWT1 100725Z 17009KT 28/20 A2995 RMK A01 T02830197  RH  060%=      5-min Rain = 0
KWT1 100726Z 17008KT 28/20 A2995 RMK A01 T02830197  RH  060%=      5-min Rain = 0
KWT1 100727Z 17010KT 28/20 A2995 RMK A01 T02830197  RH  060%=      5-min Rain = 0
KWT1 100728Z 18010KT 28/20 A2995 RMK A01 T02830197  RH  060%=      5-min Rain = 0
KWT1 100729Z 18008KT 28/20 A2995 RMK A01 T02820197  RH  060%=      5-min Rain = 0
KWT1 100730Z 18010KT 28/20 A2995 RMK A01 T02820197  RH  060%=      5-min Rain = 0
KWT1 100731Z 18009KT 28/20 A2995 RMK A01 T02820197  RH  060%=      5-min Rain = 0
KWT1 100732Z 18010KT 28/20 A2995 RMK A01 T02820197  RH  060%=      5-min Rain = 0
KWT1 100733Z 18010KT 28/20 A2995 RMK A01 T02820197  RH  060%=      5-min Rain = 0
KWT1 100734Z 18009KT 28/20 A2995 RMK A01 T02820197  RH  060%=      5-min Rain = 0
KWT1 100735Z 18010KT 28/20 A2995 RMK A01 T02820197  RH  060%=      5-min Rain = 0
KWT1 100736Z 18009G14KT 28/20 A2995 RMK A01 T02820197  RH  060%=      5-min Rain = 0
KWT1 100737Z 18009KT 28/20 A2995 RMK A01 T02820197  RH  060%=      5-min Rain = 0
KWT1 100738Z 18009KT 28/20 A2995 RMK A01 T02820197  RH  060%=      5-min Rain = 0
KWT1 100739Z 18010KT 28/20 A2995 RMK A01 T02810197  RH  060%=      5-min Rain = 0
KWT1 100740Z 18011KT 28/20 A2994 RMK A01 T02810197  RH  060%=      5-min Rain = 0
KWT1 100741Z 18010KT 28/20 A2994 RMK A01 T02810196  RH  060%=      5-min Rain = 0
KWT1 100742Z 18010KT 28/20 A2994 RMK A01 T02810196  RH  060%=      5-min Rain = 0
KWT1 100743Z 18010KT 28/20 A2994 RMK A01 T02810196  RH  060%=      5-min Rain = 0
KWT1 100744Z 18010KT 28/20 A2994 RMK A01 T02810196  RH  060%=      5-min Rain = 0
KWT1 100745Z 18010KT 28/20 A2994 RMK A01 T02800196  RH  060%=      5-min Rain = 0
KWT1 100746Z 18009KT 28/20 A2994 RMK A01 T02800196  RH  060%=      5-min Rain = 0
KWT1 100747Z 18010KT 28/20 A2994 RMK A01 T02800196  RH  060%=      5-min Rain = 0
KWT1 100748Z 18010KT 28/20 A2994 RMK A01 T02800196  RH  060%=      5-min Rain = 0
KWT1 100749Z 19009KT 28/20 A2994 RMK A01 T02800196  RH  060%=      5-min Rain = 0
KWT1 100750Z 18010KT 28/20 A2995 RMK A01 T02800196  RH  060%=      5-min Rain = 0
KWT1 100751Z 19009KT 28/20 A2995 RMK A01 T02790196  RH  061%=      5-min Rain = 0
KWT1 100752Z 18007KT 28/20 A2995 RMK A01 T02790196  RH  061%=      5-min Rain = 0
KWT1 100753Z 18008KT 28/20 A2995 RMK A01 T02790196  RH  061%=      5-min Rain = 0
KWT1 100754Z 19009KT 28/20 A2995 RMK A01 T02780196  RH  061%=      5-min Rain = 0
KWT1 100755Z 18009KT 28/20 A2995 RMK A01 T02780196  RH  061%=      5-min Rain = 0
KWT1 100756Z 18009KT 28/20 A2995 RMK A01 T02780196  RH  061%=      5-min Rain = 0
KWT1 100757Z 18008KT 28/20 A2995 RMK A01 T02780195  RH  061%=      5-min Rain = 0
KWT1 100758Z 18009KT 28/20 A2995 RMK A01 T02780196  RH  061%=      5-min Rain = 0
KWT1 100759Z 18008KT 28/20 A2995 RMK A01 T02780196  RH  061%=      5-min Rain = 0
KWT1 100800Z 18009KT 28/20 A2995 RMK A01 T02780195  RH  061%=      5-min Rain = 0
KWT1 100801Z 18008KT 28/20 A2995 RMK A01 T02780196  RH  061%=      5-min Rain = 0
KWT1 100802Z 18008KT 28/20 A2995 RMK A01 T02780195  RH  061%=      5-min Rain = 0
KWT1 100803Z 18007KT 28/20 A2995 RMK A01 T02770195  RH  061%=      5-min Rain = 0
KWT1 100804Z 18007KT 28/20 A2995 RMK A01 T02770196  RH  061%=      5-min Rain = 0
KWT1 100805Z 18008KT 28/20 A2995 RMK A01 T02770195  RH  061%=      5-min Rain = 0
KWT1 100806Z 18008KT 28/20 A2995 RMK A01 T02770195  RH  061%=      5-min Rain = 0
KWT1 100807Z 18007KT 28/20 A2995 RMK A01 T02760195  RH  061%=      5-min Rain = 0
KWT1 100808Z 18008KT 28/20 A2995 RMK A01 T02760195  RH  061%=      5-min Rain = 0
KWT1 100809Z 18007KT 28/20 A2995 RMK A01 T02760195  RH  061%=      5-min Rain = 0
KWT1 100810Z 18007KT 28/20 A2995 RMK A01 T02760195  RH  061%=      5-min Rain = 0
KWT1 100811Z 18008KT 28/20 A2995 RMK A01 T02760195  RH  061%=      5-min Rain = 0
KWT1 100812Z 18009KT 28/20 A2995 RMK A01 T02760195  RH  061%=      5-min Rain = 0
KWT1 100813Z 18008KT 28/20 A2995 RMK A01 T02760195  RH  061%=      5-min Rain = 0
KWT1 100814Z 18008KT 28/20 A2995 RMK A01 T02760195  RH  061%=      5-min Rain = 0
KWT1 100815Z 18008KT 28/20 A2995 RMK A01 T02750195  RH  061%=      5-min Rain = 0
KWT1 100816Z 18009KT 28/20 A2995 RMK A01 T02750195  RH  062%=      5-min Rain = 0
KWT1 100817Z 18009KT 28/20 A2995 RMK A01 T02750195  RH  062%=      5-min Rain = 0
KWT1 100818Z 18007KT 28/20 A2995 RMK A01 T02750195  RH  062%=      5-min Rain = 0
KWT1 100819Z 18008KT 27/20 A2995 RMK A01 T02740195  RH  062%=      5-min Rain = 0
KWT1 100820Z 17009KT 27/19 A2995 RMK A01 T02740194  RH  062%=      5-min Rain = 0
KWT1 100821Z 17008KT 27/20 A2995 RMK A01 T02730195  RH  062%=      5-min Rain = 0
KWT1 100822Z 18007KT 27/20 A2995 RMK A01 T02730195  RH  062%=      5-min Rain = 0
KWT1 100823Z 18008KT 27/19 A2995 RMK A01 T02730194  RH  062%=      5-min Rain = 0
KWT1 100824Z 18008KT 27/20 A2995 RMK A01 T02720195  RH  062%=      5-min Rain = 0
KWT1 100825Z 18008KT 27/20 A2995 RMK A01 T02720195  RH  063%=      5-min Rain = 0
KWT1 100826Z 18007KT 27/20 A2995 RMK A01 T02720195  RH  063%=      5-min Rain = 0
KWT1 100827Z 17007KT 27/20 A2995 RMK A01 T02720195  RH  063%=      5-min Rain = 0
KWT1 100828Z 18007KT 27/19 A2995 RMK A01 T02710194  RH  063%=      5-min Rain = 0
KWT1 100829Z 18007KT 27/19 A2995 RMK A01 T02710194  RH  063%=      5-min Rain = 0
KWT1 100830Z 18007KT 27/19 A2995 RMK A01 T02710194  RH  063%=      5-min Rain = 0
KWT1 100831Z 18007KT 27/20 A2995 RMK A01 T02710195  RH  063%=      5-min Rain = 0
KWT1 100832Z 18007KT 27/20 A2995 RMK A01 T02710195  RH  063%=      5-min Rain = 0
KWT1 100833Z 18008KT 27/20 A2995 RMK A01 T02710195  RH  063%=      5-min Rain = 0
KWT1 100834Z 18007KT 27/20 A2995 RMK A01 T02710195  RH  063%=      5-min Rain = 0
KWT1 100835Z 18006KT 27/19 A2995 RMK A01 T02700194  RH  063%=      5-min Rain = 0
KWT1 100836Z 19008KT 27/19 A2995 RMK A01 T02700194  RH  063%=      5-min Rain = 0
KWT1 100837Z 18008KT 27/19 A2995 RMK A01 T02700194  RH  063%=      5-min Rain = 0
KWT1 100838Z 19008KT 27/19 A2995 RMK A01 T02700194  RH  063%=      5-min Rain = 0
KWT1 100839Z 19008KT 27/19 A2995 RMK A01 T02700194  RH  063%=      5-min Rain = 0
KWT1 100840Z 18009KT 27/19 A2995 RMK A01 T02700194  RH  063%=      5-min Rain = 0
KWT1 100841Z 18008KT 27/19 A2995 RMK A01 T02690194  RH  063%=      5-min Rain = 0
KWT1 100842Z 18009KT 27/19 A2995 RMK A01 T02700194  RH  063%=      5-min Rain = 0
KWT1 100843Z 17008KT 27/19 A2995 RMK A01 T02700194  RH  063%=      5-min Rain = 0
KWT1 100844Z 18007KT 27/19 A2995 RMK A01 T02690194  RH  063%=      5-min Rain = 0
KWT1 100845Z 18007KT 27/19 A2995 RMK A01 T02700194  RH  063%=      5-min Rain = 0
KWT1 100846Z 18008KT 27/19 A2995 RMK A01 T02690194  RH  063%=      5-min Rain = 0
KWT1 100847Z 18007KT 27/19 A2995 RMK A01 T02690194  RH  063%=      5-min Rain = 0
KWT1 100848Z 18008KT 27/19 A2995 RMK A01 T02690194  RH  064%=      5-min Rain = 0
KWT1 100849Z 18008KT 27/19 A2995 RMK A01 T02680193  RH  064%=      5-min Rain = 0
KWT1 100850Z 18008KT 27/19 A2995 RMK A01 T02680193  RH  064%=      5-min Rain = 0
KWT1 100851Z 18009KT 27/19 A2995 RMK A01 T02680194  RH  064%=      5-min Rain = 0
KWT1 100852Z 18008KT 27/19 A2995 RMK A01 T02680194  RH  064%=      5-min Rain = 0
KWT1 100853Z 18008KT 27/19 A2995 RMK A01 T02680193  RH  064%=      5-min Rain = 0
KWT1 100854Z 18008KT 27/19 A2995 RMK A01 T02680193  RH  064%=      5-min Rain = 0
KWT1 100855Z 18008KT 27/19 A2995 RMK A01 T02680194  RH  064%=      5-min Rain = 0
KWT1 100856Z 18008KT 27/19 A2995 RMK A01 T02680194  RH  064%=      5-min Rain = 0
KWT1 100857Z 18008KT 27/19 A2995 RMK A01 T02680194  RH  064%=      5-min Rain = 0
KWT1 100858Z 18008KT 27/19 A2995 RMK A01 T02680194  RH  064%=      5-min Rain = 0
KWT1 100859Z 18008KT 27/19 A2995 RMK A01 T02680193  RH  064%=      5-min Rain = 0
KWT1 100900Z 18008KT 27/19 A2995 RMK A01 T02680193  RH  064%=      5-min Rain = 0
KWT1 100901Z 18007KT 27/19 A2995 RMK A01 T02680194  RH  064%=      5-min Rain = 0
KWT1 100902Z 18007KT 27/19 A2995 RMK A01 T02670193  RH  064%=      5-min Rain = 0
KWT1 100903Z 18008KT 27/19 A2995 RMK A01 T02670193  RH  064%=      5-min Rain = 0
KWT1 100904Z 18007KT 27/19 A2995 RMK A01 T02670194  RH  064%=      5-min Rain = 0
KWT1 100905Z 18008KT 27/19 A2995 RMK A01 T02660193  RH  064%=      5-min Rain = 0
KWT1 100906Z 18007KT 27/19 A2995 RMK A01 T02660193  RH  064%=      5-min Rain = 0
KWT1 100907Z 18007KT 27/19 A2995 RMK A01 T02660193  RH  064%=      5-min Rain = 0
KWT1 100908Z 18007KT 27/19 A2995 RMK A01 T02660193  RH  064%=      5-min Rain = 0
KWT1 100909Z 19007KT 27/19 A2995 RMK A01 T02660193  RH  064%=      5-min Rain = 0
KWT1 100910Z 19007KT 27/19 A2995 RMK A01 T02660193  RH  064%=      5-min Rain = 0
KWT1 100911Z 18007KT 27/19 A2995 RMK A01 T02660193  RH  064%=      5-min Rain = 0
KWT1 100912Z 19007KT 27/19 A2995 RMK A01 T02650193  RH  064%=      5-min Rain = 0
KWT1 100913Z 19007KT 27/19 A2995 RMK A01 T02650193  RH  065%=      5-min Rain = 0
KWT1 100914Z 19007KT 27/19 A2995 RMK A01 T02650193  RH  065%=      5-min Rain = 0
KWT1 100915Z 19007KT 27/19 A2995 RMK A01 T02650193  RH  065%=      5-min Rain = 0
KWT1 100916Z 19008KT 26/19 A2995 RMK A01 T02640193  RH  065%=      5-min Rain = 0
KWT1 100917Z 19007KT 27/19 A2995 RMK A01 T02650193  RH  065%=      5-min Rain = 0
KWT1 100918Z 19007KT 26/19 A2995 RMK A01 T02640193  RH  065%=      5-min Rain = 0
KWT1 100919Z 20007KT 26/19 A2995 RMK A01 T02640193  RH  065%=      5-min Rain = 0
KWT1 100920Z 20006KT 26/19 A2995 RMK A01 T02640193  RH  065%=      5-min Rain = 0
KWT1 100921Z 20007KT 26/19 A2995 RMK A01 T02630193  RH  065%=      5-min Rain = 0
KWT1 100922Z 20006KT 26/19 A2995 RMK A01 T02630193  RH  065%=      5-min Rain = 0
KWT1 100923Z 19006KT 26/19 A2995 RMK A01 T02630193  RH  065%=      5-min Rain = 0
KWT1 100924Z 20007KT 26/19 A2995 RMK A01 T02630193  RH  065%=      5-min Rain = 0
KWT1 100925Z 20007KT 26/19 A2996 RMK A01 T02620192  RH  065%=      5-min Rain = 0
KWT1 100926Z 20006KT 26/19 A2996 RMK A01 T02620193  RH  065%=      5-min Rain = 0
KWT1 100927Z 20005KT 26/19 A2996 RMK A01 T02620193  RH  065%=      5-min Rain = 0
KWT1 100928Z 20006KT 26/19 A2996 RMK A01 T02620192  RH  065%=      5-min Rain = 0
KWT1 100929Z 20006KT 26/19 A2996 RMK A01 T02620192  RH  065%=      5-min Rain = 0
KWT1 100930Z 20005KT 26/19 A2995 RMK A01 T02620192  RH  066%=      5-min Rain = 0
KWT1 100931Z 20005KT 26/19 A2995 RMK A01 T02610192  RH  066%=      5-min Rain = 0
KWT1 100932Z 20006KT 26/19 A2995 RMK A01 T02600192  RH  066%=      5-min Rain = 0
KWT1 100933Z 20006KT 26/19 A2995 RMK A01 T02600192  RH  066%=      5-min Rain = 0
KWT1 100934Z 20006KT 26/19 A2995 RMK A01 T02600192  RH  066%=      5-min Rain = 0
KWT1 100935Z 20006KT 26/19 A2995 RMK A01 T02600192  RH  066%=      5-min Rain = 0
KWT1 100936Z 20006KT 26/19 A2995 RMK A01 T02590192  RH  066%=      5-min Rain = 0
KWT1 100937Z 20006KT 26/19 A2995 RMK A01 T02590192  RH  067%=      5-min Rain = 0
KWT1 100938Z 20006KT 26/19 A2995 RMK A01 T02580192  RH  067%=      5-min Rain = 0
KWT1 100939Z 20006KT 26/19 A2995 RMK A01 T02580192  RH  067%=      5-min Rain = 0
KWT1 100940Z 20006KT 26/19 A2995 RMK A01 T02580192  RH  067%=      5-min Rain = 0
KWT1 100941Z 19006KT 26/19 A2995 RMK A01 T02580192  RH  067%=      5-min Rain = 0
KWT1 100942Z 19006KT 26/19 A2995 RMK A01 T02570192  RH  067%=      5-min Rain = 0
KWT1 100943Z 19006KT 26/19 A2995 RMK A01 T02570192  RH  067%=      5-min Rain = 0
KWT1 100944Z 19006KT 26/19 A2995 RMK A01 T02570192  RH  067%=      5-min Rain = 0
KWT1 100945Z 19006KT 26/19 A2995 RMK A01 T02570192  RH  067%=      5-min Rain = 0
KWT1 100946Z 19006KT 26/19 A2995 RMK A01 T02570192  RH  067%=      5-min Rain = 0
KWT1 100947Z 19006KT 26/19 A2995 RMK A01 T02570192  RH  067%=      5-min Rain = 0
KWT1 100948Z 18006KT 26/19 A2995 RMK A01 T02570192  RH  067%=      5-min Rain = 0
KWT1 100949Z 19006KT 26/19 A2995 RMK A01 T02570192  RH  067%=      5-min Rain = 0
KWT1 100950Z 19005KT 26/19 A2995 RMK A01 T02560191  RH  067%=      5-min Rain = 0
KWT1 100951Z 18006KT 26/19 A2996 RMK A01 T02570192  RH  067%=      5-min Rain = 0
KWT1 100952Z 18006KT 26/19 A2996 RMK A01 T02560191  RH  067%=      5-min Rain = 0
KWT1 100953Z 19006KT 26/19 A2996 RMK A01 T02570192  RH  067%=      5-min Rain = 0
KWT1 100954Z 19006KT 26/19 A2996 RMK A01 T02560192  RH  067%=      5-min Rain = 0
KWT1 100955Z 19006KT 26/19 A2996 RMK A01 T02560192  RH  067%=      5-min Rain = 0
KWT1 100956Z 19006KT 26/19 A2996 RMK A01 T02560192  RH  068%=      5-min Rain = 0
KWT1 100957Z 19005KT 26/19 A2996 RMK A01 T02550192  RH  068%=      5-min Rain = 0
KWT1 100958Z 19006KT 26/19 A2996 RMK A01 T02550191  RH  068%=      5-min Rain = 0
KWT1 100959Z 19006KT 25/19 A2996 RMK A01 T02540191  RH  068%=      5-min Rain = 0
KWT1 101000Z 20006KT 25/19 A2996 RMK A01 T02540191  RH  068%=      5-min Rain = 0
KWT1 101001Z 19006KT 25/19 A2996 RMK A01 T02540191  RH  068%=      5-min Rain = 0
KWT1 101002Z 19006KT 25/19 A2996 RMK A01 T02530191  RH  069%=      5-min Rain = 0
KWT1 101003Z 19007KT 25/19 A2996 RMK A01 T02530191  RH  069%=      5-min Rain = 0
KWT1 101004Z 19007KT 25/19 A2996 RMK A01 T02530191  RH  069%=      5-min Rain = 0
KWT1 101005Z 19007KT 25/19 A2996 RMK A01 T02530191  RH  069%=      5-min Rain = 0
KWT1 101006Z 19007KT 25/19 A2996 RMK A01 T02520191  RH  069%=      5-min Rain = 0
KWT1 101007Z 19007KT 25/19 A2996 RMK A01 T02520192  RH  069%=      5-min Rain = 0
KWT1 101008Z 19007KT 25/19 A2996 RMK A01 T02520191  RH  069%=      5-min Rain = 0
KWT1 101009Z 19007KT 25/19 A2996 RMK A01 T02520192  RH  069%=      5-min Rain = 0
KWT1 101010Z 19007KT 25/19 A2996 RMK A01 T02520192  RH  069%=      5-min Rain = 0
KWT1 101011Z 19008KT 25/19 A2996 RMK A01 T02520192  RH  069%=      5-min Rain = 0
KWT1 101012Z 19008KT 25/19 A2996 RMK A01 T02520191  RH  069%=      5-min Rain = 0
KWT1 101013Z 19008KT 25/19 A2996 RMK A01 T02520192  RH  069%=      5-min Rain = 0
KWT1 101014Z 19007KT 25/19 A2996 RMK A01 T02520191  RH  069%=      5-min Rain = 0
KWT1 101015Z 19007KT 25/19 A2996 RMK A01 T02520192  RH  069%=      5-min Rain = 0
KWT1 101016Z 19007KT 25/19 A2996 RMK A01 T02520192  RH  069%=      5-min Rain = 0
KWT1 101017Z 19007KT 25/19 A2996 RMK A01 T02520192  RH  069%=      5-min Rain = 0
KWT1 101018Z 19007KT 25/19 A2996 RMK A01 T02520192  RH  069%=      5-min Rain = 0
KWT1 101019Z 18007KT 25/19 A2996 RMK A01 T02520192  RH  069%=      5-min Rain = 0
KWT1 101020Z 18006KT 25/19 A2996 RMK A01 T02520192  RH  069%=      5-min Rain = 0
KWT1 101021Z 18007KT 25/19 A2996 RMK A01 T02510191  RH  069%=      5-min Rain = 0
KWT1 101022Z 18007KT 25/19 A2996 RMK A01 T02510192  RH  069%=      5-min Rain = 0
KWT1 101023Z 19007KT 25/19 A2996 RMK A01 T02510192  RH  070%=      5-min Rain = 0
KWT1 101024Z 19006KT 25/19 A2996 RMK A01 T02510192  RH  070%=      5-min Rain = 0
KWT1 101025Z 19007KT 25/19 A2996 RMK A01 T02510192  RH  070%=      5-min Rain = 0
KWT1 101026Z 19007KT 25/19 A2996 RMK A01 T02510192  RH  070%=      5-min Rain = 0
KWT1 101027Z 19007KT 25/19 A2996 RMK A01 T02510192  RH  070%=      5-min Rain = 0
KWT1 101028Z 19006KT 25/19 A2996 RMK A01 T02510192  RH  070%=      5-min Rain = 0
KWT1 101029Z 19007KT 25/19 A2996 RMK A01 T02510192  RH  070%=      5-min Rain = 0
KWT1 101030Z 19008KT 25/19 A2996 RMK A01 T02510192  RH  070%=      5-min Rain = 0
KWT1 101031Z 19007KT 25/19 A2996 RMK A01 T02510192  RH  070%=      5-min Rain = 0
KWT1 101032Z 19008KT 25/19 A2996 RMK A01 T02510192  RH  070%=      5-min Rain = 0
KWT1 101033Z 18007KT 25/19 A2997 RMK A01 T02510192  RH  070%=      5-min Rain = 0
KWT1 101034Z 19007KT 25/19 A2997 RMK A01 T02510192  RH  070%=      5-min Rain = 0
KWT1 101035Z 19007KT 25/19 A2997 RMK A01 T02510192  RH  070%=      5-min Rain = 0
KWT1 101036Z 19007KT 25/19 A2997 RMK A01 T02510192  RH  070%=      5-min Rain = 0
KWT1 101037Z 19007KT 25/19 A2997 RMK A01 T02500191  RH  070%=      5-min Rain = 0
KWT1 101038Z 19007KT 25/19 A2997 RMK A01 T02500191  RH  070%=      5-min Rain = 0
KWT1 101039Z 19006KT 25/19 A2997 RMK A01 T02500191  RH  070%=      5-min Rain = 0
KWT1 101040Z 19007KT 25/19 A2997 RMK A01 T02500191  RH  070%=      5-min Rain = 0
KWT1 101041Z 19006KT 25/19 A2997 RMK A01 T02500191  RH  070%=      5-min Rain = 0
KWT1 101042Z 19007KT 25/19 A2997 RMK A01 T02500191  RH  070%=      5-min Rain = 0
KWT1 101043Z 19007KT 25/19 A2997 RMK A01 T02500191  RH  070%=      5-min Rain = 0
KWT1 101044Z 19007KT 25/19 A2997 RMK A01 T02500191  RH  070%=      5-min Rain = 0
KWT1 101045Z 19006KT 25/19 A2997 RMK A01 T02500191  RH  070%=      5-min Rain = 0
KWT1 101046Z 19007KT 25/19 A2997 RMK A01 T02500191  RH  070%=      5-min Rain = 0
KWT1 101047Z 19007KT 25/19 A2997 RMK A01 T02500191  RH  070%=      5-min Rain = 0
KWT1 101048Z 19007KT 25/19 A2997 RMK A01 T02490191  RH  070%=      5-min Rain = 0
KWT1 101049Z 19006KT 25/19 A2997 RMK A01 T02490191  RH  070%=      5-min Rain = 0
KWT1 101050Z 19006KT 25/19 A2997 RMK A01 T02490191  RH  070%=      5-min Rain = 0
KWT1 101051Z 19005KT 25/19 A2997 RMK A01 T02490191  RH  070%=      5-min Rain = 0
KWT1 101052Z 19006KT 25/19 A2997 RMK A01 T02480191  RH  070%=      5-min Rain = 0
KWT1 101053Z 19006KT 25/19 A2998 RMK A01 T02480191  RH  070%=      5-min Rain = 0
KWT1 101054Z 20005KT 25/19 A2998 RMK A01 T02470190  RH  071%=      5-min Rain = 0
KWT1 101055Z 19006KT 25/19 A2998 RMK A01 T02470191  RH  071%=      5-min Rain = 0
KWT1 101056Z 20006KT 25/19 A2998 RMK A01 T02470191  RH  071%=      5-min Rain = 0
KWT1 101057Z 19006KT 25/19 A2998 RMK A01 T02470191  RH  071%=      5-min Rain = 0
KWT1 101058Z 19005KT 25/19 A2998 RMK A01 T02470191  RH  071%=      5-min Rain = 0
KWT1 101059Z 19006KT 25/19 A2998 RMK A01 T02470191  RH  071%=      5-min Rain = 0
KWT1 101100Z 19006KT 25/19 A2998 RMK A01 T02470191  RH  071%=      5-min Rain = 0
KWT1 101101Z 19006KT 25/19 A2998 RMK A01 T02470191  RH  071%=      5-min Rain = 0
KWT1 101102Z 19006KT 25/19 A2998 RMK A01 T02460191  RH  071%=      5-min Rain = 0
KWT1 101103Z 19006KT 25/19 A2998 RMK A01 T02460191  RH  071%=      5-min Rain = 0
KWT1 101104Z 19006KT 25/19 A2998 RMK A01 T02460191  RH  071%=      5-min Rain = 0
KWT1 101105Z 19006KT 25/19 A2998 RMK A01 T02460191  RH  071%=      5-min Rain = 0
KWT1 101106Z 19006KT 25/19 A2998 RMK A01 T02460191  RH  071%=      5-min Rain = 0
KWT1 101107Z 19006KT 25/19 A2998 RMK A01 T02460191  RH  071%=      5-min Rain = 0
KWT1 101108Z 19006KT 25/19 A2998 RMK A01 T02460191  RH  071%=      5-min Rain = 0
KWT1 101109Z 18006KT 25/19 A2998 RMK A01 T02460191  RH  071%=      5-min Rain = 0
KWT1 101110Z 18006KT 25/19 A2998 RMK A01 T02460191  RH  071%=      5-min Rain = 0
KWT1 101111Z 18006KT 25/19 A2998 RMK A01 T02460191  RH  071%=      5-min Rain = 0
KWT1 101112Z 18007KT 25/19 A2999 RMK A01 T02460191  RH  071%=      5-min Rain = 0
KWT1 101113Z 18007KT 25/19 A2998 RMK A01 T02460191  RH  071%=      5-min Rain = 0
KWT1 101114Z 19007KT 25/19 A2998 RMK A01 T02460191  RH  072%=      5-min Rain = 0
KWT1 101115Z 19007KT 25/19 A2998 RMK A01 T02460191  RH  072%=      5-min Rain = 0
KWT1 101116Z 19007KT 25/19 A2999 RMK A01 T02460191  RH  072%=      5-min Rain = 0
KWT1 101117Z 19007KT 25/19 A2998 RMK A01 T02450191  RH  072%=      5-min Rain = 0
KWT1 101118Z 18007KT 25/19 A2998 RMK A01 T02450191  RH  072%=      5-min Rain = 0
KWT1 101119Z 18007KT 25/19 A2998 RMK A01 T02450191  RH  072%=      5-min Rain = 0
KWT1 101120Z 18007KT 25/19 A2998 RMK A01 T02450191  RH  072%=      5-min Rain = 0
KWT1 101121Z 18007KT 24/19 A2998 RMK A01 T02440191  RH  072%=      5-min Rain = 0
KWT1 101122Z 18007KT 24/19 A2998 RMK A01 T02440191  RH  072%=      5-min Rain = 0
KWT1 101123Z 18008KT 24/19 A2998 RMK A01 T02440191  RH  072%=      5-min Rain = 0
KWT1 101124Z 18007KT 24/19 A2998 RMK A01 T02440191  RH  072%=      5-min Rain = 0
KWT1 101125Z 18008KT 24/19 A2998 RMK A01 T02440191  RH  073%=      5-min Rain = 0
KWT1 101126Z 18008KT 24/19 A2998 RMK A01 T02430191  RH  073%=      5-min Rain = 0
KWT1 101127Z 18008KT 24/19 A2998 RMK A01 T02440191  RH  073%=      5-min Rain = 0
KWT1 101128Z 18008KT 24/19 A2998 RMK A01 T02430191  RH  073%=      5-min Rain = 0
KWT1 101129Z 18008KT 24/19 A2998 RMK A01 T02430191  RH  073%=      5-min Rain = 0
KWT1 101130Z 18008KT 24/19 A2998 RMK A01 T02430191  RH  073%=      5-min Rain = 0
KWT1 101131Z 18007KT 24/19 A2998 RMK A01 T02420191  RH  073%=      5-min Rain = 0
KWT1 101132Z 18008KT 24/19 A2998 RMK A01 T02420191  RH  073%=      5-min Rain = 0
KWT1 101133Z 18007KT 24/19 A2999 RMK A01 T02430192  RH  073%=      5-min Rain = 0
KWT1 101134Z 18008KT 24/19 A2999 RMK A01 T02430191  RH  073%=      5-min Rain = 0
KWT1 101135Z 17007KT 24/19 A2999 RMK A01 T02430191  RH  073%=      5-min Rain = 0
KWT1 101136Z 18007KT 24/19 A2999 RMK A01 T02430191  RH  073%=      5-min Rain = 0
KWT1 101137Z 17008KT 24/19 A2999 RMK A01 T02430191  RH  073%=      5-min Rain = 0
KWT1 101138Z 18007KT 24/19 A2999 RMK A01 T02430192  RH  073%=      5-min Rain = 0
KWT1 101139Z 17007KT 24/19 A2999 RMK A01 T02430192  RH  073%=      5-min Rain = 0
KWT1 101140Z 18007KT 24/19 A2999 RMK A01 T02430192  RH  073%=      5-min Rain = 0
KWT1 101141Z 18007KT 24/19 A2999 RMK A01 T02440192  RH  073%=      5-min Rain = 0
KWT1 101142Z 18007KT 24/19 A2999 RMK A01 T02440192  RH  073%=      5-min Rain = 0
KWT1 101143Z 18007KT 24/19 A2999 RMK A01 T02440192  RH  073%=      5-min Rain = 0
KWT1 101144Z 19007KT 24/19 A2999 RMK A01 T02440192  RH  073%=      5-min Rain = 0
KWT1 101145Z 19007KT 24/19 A2999 RMK A01 T02440192  RH  073%=      5-min Rain = 0
KWT1 101146Z 19007KT 24/19 A2999 RMK A01 T02440192  RH  073%=      5-min Rain = 0
KWT1 101147Z 19007KT 24/19 A30 RMK A01 T02440192  RH  073%=      5-min Rain = 0
KWT1 101148Z 19007KT 24/19 A30 RMK A01 T02440192  RH  073%=      5-min Rain = 0
KWT1 101149Z 20006KT 24/19 A30 RMK A01 T02440192  RH  073%=      5-min Rain = 0
KWT1 101150Z 20006KT 24/19 A30 RMK A01 T02440192  RH  073%=      5-min Rain = 0
KWT1 101151Z 20006KT 24/19 A30 RMK A01 T02440192  RH  073%=      5-min Rain = 0
KWT1 101152Z 20006KT 24/19 A30 RMK A01 T02430192  RH  073%=      5-min Rain = 0
KWT1 101153Z 20005KT 24/19 A30 RMK A01 T02430192  RH  073%=      5-min Rain = 0
KWT1 101154Z 20005KT 24/19 A30 RMK A01 T02420192  RH  073%=      5-min Rain = 0
KWT1 101155Z 20006KT 24/19 A30 RMK A01 T02420192  RH  073%=      5-min Rain = 0
KWT1 101156Z 21005KT 24/19 A30 RMK A01 T02420192  RH  074%=      5-min Rain = 0
KWT1 101157Z 21006KT 24/19 A30 RMK A01 T02420192  RH  074%=      5-min Rain = 0
KWT1 101158Z 21006KT 24/19 A30 RMK A01 T02420192  RH  074%=      5-min Rain = 0
KWT1 101159Z 21005KT 24/19 A30 RMK A01 T02420192  RH  074%=      5-min Rain = 0
KWT1 101200Z 20005KT 24/19 A30 RMK A01 T02420192  RH  074%=      5-min Rain = 0
KWT1 101201Z 20005KT 24/19 A30 RMK A01 T02420192  RH  074%=      5-min Rain = 0
KWT1 101202Z 20005KT 24/19 A30 RMK A01 T02420192  RH  074%=      5-min Rain = 0
KWT1 101203Z 20005KT 24/19 A30 RMK A01 T02420192  RH  074%=      5-min Rain = 0
KWT1 101204Z 19006KT 24/19 A30 RMK A01 T02410192  RH  074%=      5-min Rain = 0
KWT1 101205Z 19005KT 24/19 A30 RMK A01 T02410192  RH  074%=      5-min Rain = 0
KWT1 101206Z 20006KT 24/19 A30 RMK A01 T02410192  RH  074%=      5-min Rain = 0
KWT1 101207Z 20005KT 24/19 A30 RMK A01 T02410192  RH  074%=      5-min Rain = 0
KWT1 101208Z 20006KT 24/19 A30 RMK A01 T02400192  RH  074%=      5-min Rain = 0
KWT1 101209Z 20005KT 24/19 A30 RMK A01 T02400192  RH  074%=      5-min Rain = 0
KWT1 101210Z 20005KT 24/19 A30 RMK A01 T02400192  RH  074%=      5-min Rain = 0
KWT1 101211Z 20006KT 24/19 A30 RMK A01 T02400192  RH  074%=      5-min Rain = 0
KWT1 101212Z 20006KT 24/19 A30 RMK A01 T02400192  RH  074%=      5-min Rain = 0
KWT1 101213Z 20006KT 24/19 A3001 RMK A01 T02400192  RH  074%=      5-min Rain = 0
KWT1 101214Z 20006KT 24/19 A3001 RMK A01 T02410192  RH  074%=      5-min Rain = 0
KWT1 101215Z 20006KT 24/19 A3001 RMK A01 T02400192  RH  074%=      5-min Rain = 0
KWT1 101216Z 19006KT 24/19 A30 RMK A01 T02410192  RH  074%=      5-min Rain = 0
KWT1 101217Z 19006KT 24/19 A30 RMK A01 T02410192  RH  074%=      5-min Rain = 0
KWT1 101218Z 19006KT 24/19 A30 RMK A01 T02410192  RH  074%=      5-min Rain = 0
KWT1 101219Z 19006KT 24/19 A30 RMK A01 T02410192  RH  074%=      5-min Rain = 0
KWT1 101220Z 20006KT 24/19 A30 RMK A01 T02420192  RH  074%=      5-min Rain = 0
KWT1 101221Z 19007KT 24/19 A30 RMK A01 T02420192  RH  074%=      5-min Rain = 0
KWT1 101222Z 19006KT 24/19 A30 RMK A01 T02420193  RH  074%=      5-min Rain = 0
KWT1 101223Z 19006KT 24/19 A3001 RMK A01 T02430193  RH  074%=      5-min Rain = 0
KWT1 101224Z 19006KT 24/19 A3001 RMK A01 T02430193  RH  073%=      5-min Rain = 0
KWT1 101225Z 19007KT 24/19 A3001 RMK A01 T02430193  RH  073%=      5-min Rain = 0
KWT1 101226Z 19006KT 25/19 A3001 RMK A01 T02450194  RH  073%=      5-min Rain = 0
KWT1 101227Z 19006KT 24/19 A3001 RMK A01 T02440193  RH  073%=      5-min Rain = 0
KWT1 101228Z 19006KT 25/19 A3001 RMK A01 T02450193  RH  073%=      5-min Rain = 0
KWT1 101229Z 19006KT 25/19 A3001 RMK A01 T02450194  RH  073%=      5-min Rain = 0
KWT1 101230Z 18006KT 25/19 A3001 RMK A01 T02460194  RH  073%=      5-min Rain = 0
KWT1 101231Z 18007KT 25/19 A3001 RMK A01 T02460194  RH  072%=      5-min Rain = 0
KWT1 101232Z 18006KT 25/19 A3001 RMK A01 T02460194  RH  072%=      5-min Rain = 0
KWT1 101233Z 18007KT 25/19 A3001 RMK A01 T02460193  RH  072%=      5-min Rain = 0
KWT1 101234Z 18007KT 25/19 A3001 RMK A01 T02470194  RH  072%=      5-min Rain = 0
KWT1 101235Z 18007KT 25/19 A3001 RMK A01 T02470194  RH  072%=      5-min Rain = 0
KWT1 101236Z 18007KT 25/19 A3001 RMK A01 T02470194  RH  072%=      5-min Rain = 0
KWT1 101237Z 18007KT 25/19 A3001 RMK A01 T02470194  RH  072%=      5-min Rain = 0
KWT1 101238Z 18008KT 25/19 A3001 RMK A01 T02470194  RH  072%=      5-min Rain = 0
KWT1 101239Z 18007KT 25/19 A3001 RMK A01 T02480194  RH  072%=      5-min Rain = 0
KWT1 101240Z 18008KT 25/19 A3001 RMK A01 T02480194  RH  072%=      5-min Rain = 0
KWT1 101241Z 18008KT 25/19 A3001 RMK A01 T02480194  RH  072%=      5-min Rain = 0
KWT1 101242Z 18008KT 25/19 A3001 RMK A01 T02480194  RH  072%=      5-min Rain = 0
KWT1 101243Z 18008KT 25/19 A3001 RMK A01 T02480194  RH  072%=      5-min Rain = 0
KWT1 101244Z 19007KT 25/19 A3001 RMK A01 T02490194  RH  072%=      5-min Rain = 0
KWT1 101245Z 19007KT 25/19 A3001 RMK A01 T02490194  RH  072%=      5-min Rain = 0
KWT1 101246Z 19007KT 25/19 A3001 RMK A01 T02490194  RH  071%=      5-min Rain = 0
KWT1 101247Z 18005KT 25/20 A3001 RMK A01 T02500195  RH  071%=      5-min Rain = 0
KWT1 101248Z 18006KT 25/20 A3001 RMK A01 T02500195  RH  071%=      5-min Rain = 0
KWT1 101249Z 19007KT 25/20 A3001 RMK A01 T02510195  RH  071%=      5-min Rain = 0
KWT1 101250Z 18006KT 25/20 A3001 RMK A01 T02510195  RH  071%=      5-min Rain = 0
KWT1 101251Z 19006KT 25/20 A3001 RMK A01 T02520195  RH  071%=      5-min Rain = 0
KWT1 101252Z 18006KT 25/20 A3001 RMK A01 T02530196  RH  071%=      5-min Rain = 0
KWT1 101253Z 18006KT 25/20 A3001 RMK A01 T02530196  RH  070%=      5-min Rain = 0
KWT1 101254Z 19006KT 25/20 A3001 RMK A01 T02540195  RH  070%=      5-min Rain = 0
KWT1 101255Z 19005KT 25/20 A3001 RMK A01 T02540195  RH  070%=      5-min Rain = 0
KWT1 101256Z 19007KT 26/20 A3001 RMK A01 T02550196  RH  070%=      5-min Rain = 0
KWT1 101257Z 19006KT 26/20 A3001 RMK A01 T02560196  RH  070%=      5-min Rain = 0
KWT1 101258Z 18007KT 26/20 A3001 RMK A01 T02560196  RH  069%=      5-min Rain = 0
KWT1 101259Z 19007KT 26/20 A3001 RMK A01 T02560196  RH  069%=      5-min Rain = 0
KWT1 101300Z 18007KT 26/20 A3001 RMK A01 T02570196  RH  069%=      5-min Rain = 0
KWT1 101301Z 18005KT 26/20 A3001 RMK A01 T02570197  RH  069%=      5-min Rain = 0
KWT1 101302Z 18006KT 26/20 A3001 RMK A01 T02580197  RH  069%=      5-min Rain = 0
KWT1 101303Z 18007KT 26/20 A3002 RMK A01 T02590197  RH  069%=      5-min Rain = 0
KWT1 101304Z 18009KT 26/20 A3002 RMK A01 T02590196  RH  068%=      5-min Rain = 0
KWT1 101305Z 18006KT 26/20 A3002 RMK A01 T02590197  RH  068%=      5-min Rain = 0
KWT1 101306Z 18008KT 26/20 A3002 RMK A01 T02600197  RH  068%=      5-min Rain = 0
KWT1 101307Z 18007KT 26/20 A3002 RMK A01 T02610197  RH  068%=      5-min Rain = 0
KWT1 101308Z 18007KT 26/20 A3002 RMK A01 T02610198  RH  068%=      5-min Rain = 0
KWT1 101309Z 18007KT 26/20 A3002 RMK A01 T02620197  RH  068%=      5-min Rain = 0
KWT1 101310Z 18005KT 26/20 A3002 RMK A01 T02630198  RH  068%=      5-min Rain = 0
KWT1 101311Z 17006KT 26/20 A3002 RMK A01 T02630198  RH  067%=      5-min Rain = 0
KWT1 101312Z 17007KT 26/20 A3002 RMK A01 T02640199  RH  067%=      5-min Rain = 0
KWT1 101313Z 17007KT 27/20 A3002 RMK A01 T02650198  RH  067%=      5-min Rain = 0
KWT1 101314Z 18006KT 27/20 A3002 RMK A01 T02650198  RH  067%=      5-min Rain = 0
KWT1 101315Z 18010KT 27/20 A3002 RMK A01 T02650199  RH  067%=      5-min Rain = 0
KWT1 101316Z 17009KT 27/20 A3003 RMK A01 T02650199  RH  067%=      5-min Rain = 0
KWT1 101317Z 17009KT 27/20 A3003 RMK A01 T02650199  RH  067%=      5-min Rain = 0
KWT1 101318Z 18009KT 27/20 A3003 RMK A01 T02650199  RH  067%=      5-min Rain = 0
KWT1 101319Z 19008KT 27/20 A3003 RMK A01 T02660201  RH  067%=      5-min Rain = 0
KWT1 101320Z 18009KT 27/20 A3003 RMK A01 T02670201  RH  067%=      5-min Rain = 0
KWT1 101321Z 19007KT 27/20 A3003 RMK A01 T02670201  RH  067%=      5-min Rain = 0
KWT1 101322Z 18008KT 27/20 A3003 RMK A01 T02670201  RH  067%=      5-min Rain = 0
KWT1 101323Z 18007KT 27/20 A3003 RMK A01 T02680201  RH  067%=      5-min Rain = 0
KWT1 101324Z 18008KT 27/20 A3003 RMK A01 T02690202  RH  067%=      5-min Rain = 0
KWT1 101325Z 18008KT 27/20 A3003 RMK A01 T02690202  RH  066%=      5-min Rain = 0
KWT1 101326Z 18007KT 27/20 A3003 RMK A01 T02700203  RH  067%=      5-min Rain = 0
KWT1 101327Z 19009KT 27/20 A3003 RMK A01 T02700203  RH  066%=      5-min Rain = 0
KWT1 101328Z 17010KT 27/20 A3003 RMK A01 T02710203  RH  066%=      5-min Rain = 0
KWT1 101329Z 18011KT 27/20 A3003 RMK A01 T02710204  RH  067%=      5-min Rain = 0
KWT1 101330Z 18010KT 27/20 A3003 RMK A01 T02710204  RH  067%=      5-min Rain = 0
KWT1 101331Z 18012KT 27/20 A3003 RMK A01 T02690204  RH  067%=      5-min Rain = 0
KWT1 101332Z 18011KT 27/20 A3003 RMK A01 T02690204  RH  068%=      5-min Rain = 0
KWT1 101333Z 18011G16KT 27/21 A3003 RMK A01 T02690205  RH  068%=      5-min Rain = 0
KWT1 101334Z 19011KT 27/21 A3003 RMK A01 T02700206  RH  068%=      5-min Rain = 0
KWT1 101335Z 19011KT 27/21 A3003 RMK A01 T02700206  RH  068%=      5-min Rain = 0
KWT1 101336Z 18011KT 27/21 A3003 RMK A01 T02700205  RH  068%=      5-min Rain = 0
KWT1 101337Z 19009KT 27/21 A3003 RMK A01 T02700206  RH  068%=      5-min Rain = 0
KWT1 101338Z 18009KT 27/21 A3003 RMK A01 T02700206  RH  068%=      5-min Rain = 0
KWT1 101339Z 20011KT 27/21 A3003 RMK A01 T02710206  RH  068%=      5-min Rain = 0
KWT1 101340Z 19009KT 27/21 A3003 RMK A01 T02720207  RH  068%=      5-min Rain = 0
KWT1 101341Z 18009KT 27/21 A3004 RMK A01 T02720207  RH  068%=      5-min Rain = 0
KWT1 101342Z 19009KT 27/21 A3004 RMK A01 T02720207  RH  068%=      5-min Rain = 0
KWT1 101343Z 19010KT 27/21 A3004 RMK A01 T02730207  RH  067%=      5-min Rain = 0
KWT1 101344Z 19012KT 27/21 A3004 RMK A01 T02730207  RH  067%=      5-min Rain = 0
KWT1 101345Z 19010KT 27/21 A3004 RMK A01 T02730208  RH  068%=      5-min Rain = 0
KWT1 101346Z 19012KT 27/21 A3003 RMK A01 T02730208  RH  068%=      5-min Rain = 0
KWT1 101347Z 19013KT 27/21 A3003 RMK A01 T02720208  RH  068%=      5-min Rain = 0
KWT1 101348Z 19013KT 27/21 A3003 RMK A01 T02730209  RH  068%=      5-min Rain = 0
KWT1 101349Z 18012KT 27/21 A3003 RMK A01 T02720208  RH  068%=      5-min Rain = 0
KWT1 101350Z 18010KT 27/21 A3003 RMK A01 T02720209  RH  068%=      5-min Rain = 0
KWT1 101351Z 18010KT 27/21 A3003 RMK A01 T02730209  RH  068%=      5-min Rain = 0
KWT1 101352Z 19011KT 27/21 A3003 RMK A01 T02730209  RH  068%=      5-min Rain = 0
KWT1 101353Z 18012KT 27/21 A3003 RMK A01 T02740210  RH  068%=      5-min Rain = 0
KWT1 101354Z 18012G17KT 28/21 A3003 RMK A01 T02750210  RH  067%=      5-min Rain = 0
KWT1 101355Z 17010KT 28/21 A3003 RMK A01 T02760210  RH  068%=      5-min Rain = 0
KWT1 101356Z 18012KT 28/21 A3003 RMK A01 T02770210  RH  067%=      5-min Rain = 0
KWT1 101357Z 18012KT 28/21 A3003 RMK A01 T02770210  RH  067%=      5-min Rain = 0
KWT1 101358Z 18011KT 28/21 A3003 RMK A01 T02770210  RH  067%=      5-min Rain = 0
KWT1 101359Z 18010KT 28/21 A3003 RMK A01 T02770211  RH  067%=      5-min Rain = 0
KWT1 101400Z 19010KT 28/21 A3003 RMK A01 T02770210  RH  067%=      5-min Rain = 0
KWT1 101401Z 19011KT 28/21 A3003 RMK A01 T02770211  RH  067%=      5-min Rain = 0
KWT1 101402Z 19009KT 28/21 A3003 RMK A01 T02780211  RH  067%=      5-min Rain = 0
KWT1 101403Z 18010KT 28/21 A3003 RMK A01 T02790212  RH  067%=      5-min Rain = 0
KWT1 101404Z 18010KT 28/21 A3003 RMK A01 T02800212  RH  066%=      5-min Rain = 0
KWT1 101405Z 19011KT 28/21 A3004 RMK A01 T02800211  RH  066%=      5-min Rain = 0
KWT1 101406Z 20011KT 28/21 A3004 RMK A01 T02800212  RH  066%=      5-min Rain = 0
KWT1 101407Z 20012KT 28/21 A3003 RMK A01 T02810212  RH  066%=      5-min Rain = 0
KWT1 101408Z 20010KT 28/21 A3003 RMK A01 T02820213  RH  066%=      5-min Rain = 0
KWT1 101409Z 20010KT 28/21 A3003 RMK A01 T02820213  RH  066%=      5-min Rain = 0
KWT1 101410Z 22011KT 28/21 A3003 RMK A01 T02840214  RH  066%=      5-min Rain = 0
KWT1 101411Z 21010KT 29/21 A3003 RMK A01 T02860213  RH  065%=      5-min Rain = 0
KWT1 101412Z 21011KT 29/21 A3003 RMK A01 T02860214  RH  065%=      5-min Rain = 0
KWT1 101413Z 19008KT 29/21 A3003 RMK A01 T02880214  RH  065%=      5-min Rain = 0
KWT1 101414Z 19010KT 29/22 A3003 RMK A01 T02900215  RH  064%=      5-min Rain = 0
KWT1 101415Z 19012KT 29/21 A3003 RMK A01 T02900214  RH  063%=      5-min Rain = 0
KWT1 101416Z 19010KT 29/21 A3003 RMK A01 T02890214  RH  064%=      5-min Rain = 0
KWT1 101417Z 19010KT 29/21 A3003 RMK A01 T02880214  RH  064%=      5-min Rain = 0
KWT1 101418Z 19009G14KT 29/21 A3003 RMK A01 T02890214  RH  064%=      5-min Rain = 0
KWT1 101419Z 19008KT 29/21 A3003 RMK A01 T02890214  RH  064%=      5-min Rain = 0
KWT1 101420Z 19008G14KT 29/22 A3003 RMK A01 T02910215  RH  064%=      5-min Rain = 0
KWT1 101421Z 19011KT 29/22 A3003 RMK A01 T02920215  RH  063%=      5-min Rain = 0
KWT1 101422Z 19013KT 29/21 A3003 RMK A01 T02930214  RH  063%=      5-min Rain = 0
KWT1 101423Z 19013KT 29/21 A3003 RMK A01 T02900213  RH  063%=      5-min Rain = 0
KWT1 101424Z 18013G18KT 29/21 A3003 RMK A01 T02870214  RH  064%=      5-min Rain = 0
KWT1 101425Z 19014KT 29/21 A3003 RMK A01 T02870213  RH  064%=      5-min Rain = 0
KWT1 101426Z 20012KT 29/21 A3003 RMK A01 T02870214  RH  065%=      5-min Rain = 0
KWT1 101427Z 19011KT 29/21 A3003 RMK A01 T02870214  RH  065%=      5-min Rain = 0
KWT1 101428Z 20012KT 29/21 A3003 RMK A01 T02880214  RH  064%=      5-min Rain = 0
KWT1 101429Z 20012G18KT 29/21 A3003 RMK A01 T02880214  RH  064%=      5-min Rain = 0
KWT1 101430Z 19013KT 29/21 A3003 RMK A01 T02890213  RH  064%=      5-min Rain = 0
KWT1 101431Z 18012KT 29/21 A3003 RMK A01 T02870213  RH  064%=      5-min Rain = 0
KWT1 101432Z 19014KT 29/21 A3003 RMK A01 T02870213  RH  064%=      5-min Rain = 0
KWT1 101433Z 20010KT 29/21 A3003 RMK A01 T02870213  RH  065%=      5-min Rain = 0
KWT1 101434Z 19011KT 29/22 A3003 RMK A01 T02880215  RH  065%=      5-min Rain = 0
KWT1 101435Z 19012KT 29/21 A3003 RMK A01 T02900214  RH  064%=      5-min Rain = 0
KWT1 101436Z 19013KT 29/21 A3003 RMK A01 T02900214  RH  064%=      5-min Rain = 0
KWT1 101437Z 18011KT 29/21 A3003 RMK A01 T02890214  RH  064%=      5-min Rain = 0
KWT1 101438Z 18010KT 29/22 A3003 RMK A01 T02900215  RH  064%=      5-min Rain = 0
KWT1 101439Z 19011KT 29/22 A3003 RMK A01 T02910215  RH  064%=      5-min Rain = 0
KWT1 101440Z 19009KT 29/22 A3003 RMK A01 T02910215  RH  063%=      5-min Rain = 0
KWT1 101441Z 18012KT 29/22 A3003 RMK A01 T02920215  RH  063%=      5-min Rain = 0
KWT1 101442Z 18011KT 29/22 A3003 RMK A01 T02920215  RH  063%=      5-min Rain = 0
KWT1 101443Z 20013KT 29/22 A3003 RMK A01 T02930215  RH  063%=      5-min Rain = 0
KWT1 101444Z 20013KT 29/21 A3003 RMK A01 T02930214  RH  063%=      5-min Rain = 0
KWT1 101445Z 20014KT 29/22 A3003 RMK A01 T02930215  RH  063%=      5-min Rain = 0
KWT1 101446Z 20015KT 29/21 A3003 RMK A01 T02920214  RH  063%=      5-min Rain = 0
KWT1 101447Z 20012KT 29/21 A3003 RMK A01 T02910214  RH  063%=      5-min Rain = 0
KWT1 101448Z 20013KT 29/22 A3003 RMK A01 T02910215  RH  063%=      5-min Rain = 0
KWT1 101449Z 20013KT 29/22 A3003 RMK A01 T02930215  RH  063%=      5-min Rain = 0
KWT1 101450Z 19011G17KT 29/22 A3003 RMK A01 T02940215  RH  063%=      5-min Rain = 0
KWT1 101451Z 18011KT 30/22 A3003 RMK A01 T02960215  RH  062%=      5-min Rain = 0
KWT1 101452Z 20014KT 30/22 A3003 RMK A01 T02990216  RH  061%=      5-min Rain = 0
KWT1 101453Z 21013KT 30/22 A3003 RMK A01 T02980215  RH  061%=      5-min Rain = 0
KWT1 101454Z 21012KT 30/22 A3002 RMK A01 T02950215  RH  062%=      5-min Rain = 0
KWT1 101455Z 19013KT 29/22 A3002 RMK A01 T02940215  RH  062%=      5-min Rain = 0
KWT1 101456Z 19010KT 29/22 A3002 RMK A01 T02940215  RH  062%=      5-min Rain = 0
KWT1 101457Z 19013KT 30/22 A3002 RMK A01 T02950215  RH  062%=      5-min Rain = 0
KWT1 101458Z 19011G16KT 30/22 A3002 RMK A01 T02960216  RH  062%=      5-min Rain = 0
KWT1 101459Z 19013KT 30/22 A3003 RMK A01 T02980215  RH  061%=      5-min Rain = 0
KWT1 101500Z 18012KT 30/22 A3003 RMK A01 T02970216  RH  062%=      5-min Rain = 0
KWT1 101501Z 20011KT 30/22 A3003 RMK A01 T02970216  RH  062%=      5-min Rain = 0
KWT1 101502Z 21013KT 30/22 A3003 RMK A01 T02990215  RH  061%=      5-min Rain = 0
KWT1 101503Z 20013KT 30/22 A3003 RMK A01 T02990216  RH  061%=      5-min Rain = 0
KWT1 101504Z 19013KT 30/22 A3003 RMK A01 T02990215  RH  061%=      5-min Rain = 0
KWT1 101505Z 19013KT 30/22 A3003 RMK A01 T02970215  RH  061%=      5-min Rain = 0
KWT1 101506Z 20015KT 30/22 A3003 RMK A01 T02980215  RH  061%=      5-min Rain = 0
KWT1 101507Z 19012KT 30/22 A3003 RMK A01 T03000215  RH  061%=      5-min Rain = 0
KWT1 101508Z 19013KT 30/22 A3003 RMK A01 T03010215  RH  060%=      5-min Rain = 0
KWT1 101509Z 18010KT 30/22 A3003 RMK A01 T03020216  RH  060%=      5-min Rain = 0
KWT1 101510Z 19011G17KT 30/22 A3003 RMK A01 T03030216  RH  060%=      5-min Rain = 0
KWT1 101511Z 19014KT 30/22 A3003 RMK A01 T03030215  RH  059%=      5-min Rain = 0
KWT1 101512Z 18014KT 30/22 A3003 RMK A01 T03010215  RH  060%=      5-min Rain = 0
KWT1 101513Z 19011KT 30/22 A3003 RMK A01 T03000215  RH  061%=      5-min Rain = 0
KWT1 101514Z 20012KT 30/22 A3003 RMK A01 T03020216  RH  060%=      5-min Rain = 0
KWT1 101515Z 19009KT 30/22 A3003 RMK A01 T03020216  RH  060%=      5-min Rain = 0
KWT1 101516Z 19009KT 30/22 A3003 RMK A01 T03020216  RH  060%=      5-min Rain = 0
KWT1 101517Z 19010KT 30/22 A3003 RMK A01 T03040216  RH  059%=      5-min Rain = 0
KWT1 101518Z 19009KT 30/22 A3003 RMK A01 T03030216  RH  060%=      5-min Rain = 0
KWT1 101519Z 18009KT 30/22 A3003 RMK A01 T03040217  RH  060%=      5-min Rain = 0
KWT1 101520Z 18007KT 31/22 A3003 RMK A01 T03050218  RH  060%=      5-min Rain = 0
KWT1 101521Z 18012KT 31/22 A3003 RMK A01 T03060217  RH  059%=      5-min Rain = 0
KWT1 101522Z 18011G16KT 31/22 A3003 RMK A01 T03060217  RH  059%=      5-min Rain = 0
KWT1 101523Z 18012KT 31/22 A3003 RMK A01 T03060216  RH  059%=      5-min Rain = 0
KWT1 101524Z 18010KT 30/22 A3003 RMK A01 T03040215  RH  059%=      5-min Rain = 0
KWT1 101525Z 19013KT 30/22 A3003 RMK A01 T03040216  RH  059%=      5-min Rain = 0
KWT1 101526Z 19012KT 31/22 A3003 RMK A01 T03060216  RH  059%=      5-min Rain = 0
KWT1 101527Z 20010KT 31/22 A3003 RMK A01 T03050217  RH  059%=      5-min Rain = 0
KWT1 101528Z 20008KT 30/22 A3003 RMK A01 T03040216  RH  059%=      5-min Rain = 0
KWT1 101529Z 17009KT 30/22 A3003 RMK A01 T03040216  RH  059%=      5-min Rain = 0
KWT1 101530Z 18014KT 31/22 A3003 RMK A01 T03060217  RH  059%=      5-min Rain = 0
KWT1 101531Z 18011KT 31/22 A3003 RMK A01 T03060217  RH  059%=      5-min Rain = 0
KWT1 101532Z 19011KT 31/22 A3003 RMK A01 T03070217  RH  059%=      5-min Rain = 0
KWT1 101533Z 18010KT 31/22 A3003 RMK A01 T03070217  RH  059%=      5-min Rain = 0
KWT1 101534Z 19010KT 31/22 A3003 RMK A01 T03070217  RH  059%=      5-min Rain = 0
KWT1 101535Z 20011KT 31/22 A3003 RMK A01 T03090217  RH  058%=      5-min Rain = 0
KWT1 101536Z 20009KT 31/22 A3003 RMK A01 T03100217  RH  057%=      5-min Rain = 0
KWT1 101537Z 22009KT 31/22 A3003 RMK A01 T03120217  RH  057%=      5-min Rain = 0
KWT1 101538Z 21008KT 31/22 A3003 RMK A01 T03120217  RH  057%=      5-min Rain = 0
KWT1 101539Z 19009KT 31/22 A3003 RMK A01 T03140219  RH  057%=      5-min Rain = 0
KWT1 101540Z 20011KT 32/22 A3003 RMK A01 T03160218  RH  056%=      5-min Rain = 0
KWT1 101541Z 21010KT 32/22 A3003 RMK A01 T03170216  RH  055%=      5-min Rain = 0
KWT1 101542Z 21008KT 32/22 A3003 RMK A01 T03150218  RH  056%=      5-min Rain = 0
KWT1 101543Z 21009G14KT 32/22 A3003 RMK A01 T03190219  RH  056%=      5-min Rain = 0
KWT1 101544Z 21011KT 32/22 A3003 RMK A01 T03210217  RH  054%=      5-min Rain = 0
KWT1 101545Z 22010KT 32/22 A3003 RMK A01 T03180216  RH  055%=      5-min Rain = 0
KWT1 101546Z 22011KT 32/22 A3003 RMK A01 T03160216  RH  055%=      5-min Rain = 0
KWT1 101547Z 20012KT 32/22 A3003 RMK A01 T03170217  RH  055%=      5-min Rain = 0
KWT1 101548Z 20010KT 32/22 A3003 RMK A01 T03180216  RH  055%=      5-min Rain = 0
KWT1 101549Z 20010KT 32/22 A3003 RMK A01 T03200216  RH  054%=      5-min Rain = 0
KWT1 101550Z 18009KT 32/22 A3003 RMK A01 T03200218  RH  055%=      5-min Rain = 0
KWT1 101551Z 19011KT 32/22 A3003 RMK A01 T03200219  RH  055%=      5-min Rain = 0
KWT1 101552Z 20008G14KT 32/22 A3003 RMK A01 T03200219  RH  055%=      5-min Rain = 0
KWT1 101553Z 19009KT 32/22 A3003 RMK A01 T03240218  RH  054%=      5-min Rain = 0
KWT1 101554Z 17011KT 32/22 A3003 RMK A01 T03230216  RH  053%=      5-min Rain = 0
KWT1 101555Z 19010KT 32/22 A3004 RMK A01 T03180215  RH  054%=      5-min Rain = 0
KWT1 101556Z 19010KT 32/22 A3004 RMK A01 T03170216  RH  055%=      5-min Rain = 0
KWT1 101557Z 19012KT 32/21 A3004 RMK A01 T03190214  RH  054%=      5-min Rain = 0
KWT1 101558Z 18009KT 32/22 A3004 RMK A01 T03180215  RH  054%=      5-min Rain = 0
KWT1 101559Z 21007KT 32/22 A3004 RMK A01 T03170216  RH  055%=      5-min Rain = 0
KWT1 101600Z 20009KT 32/22 A3004 RMK A01 T03190217  RH  055%=      5-min Rain = 0
KWT1 101601Z 19009KT 32/22 A3004 RMK A01 T03210217  RH  054%=      5-min Rain = 0
KWT1 101602Z 19010KT 32/22 A3004 RMK A01 T03210216  RH  054%=      5-min Rain = 0
KWT1 101603Z 19009KT 32/22 A3004 RMK A01 T03190216  RH  055%=      5-min Rain = 0
KWT1 101604Z 17008KT 32/22 A3004 RMK A01 T03180217  RH  055%=      5-min Rain = 0
KWT1 101605Z 18009KT 32/22 A3004 RMK A01 T03220218  RH  054%=      5-min Rain = 0
KWT1 101606Z 17009KT 33/22 A3004 RMK A01 T03250218  RH  053%=      5-min Rain = 0
KWT1 101607Z 20007KT 33/22 A3004 RMK A01 T03270218  RH  053%=      5-min Rain = 0
KWT1 101608Z 17009KT 33/22 A3004 RMK A01 T03270218  RH  053%=      5-min Rain = 0
KWT1 101609Z 18009KT 33/22 A3004 RMK A01 T03250217  RH  053%=      5-min Rain = 0
KWT1 101610Z 18009KT 32/22 A3004 RMK A01 T03230217  RH  054%=      5-min Rain = 0
KWT1 101611Z 18011KT 32/22 A3004 RMK A01 T03230217  RH  053%=      5-min Rain = 0
KWT1 101612Z 19010KT 32/22 A3004 RMK A01 T03230216  RH  053%=      5-min Rain = 0
KWT1 101613Z 18010KT 32/22 A3004 RMK A01 T03230217  RH  054%=      5-min Rain = 0
KWT1 101614Z 17007KT 32/22 A3005 RMK A01 T03240218  RH  053%=      5-min Rain = 0
KWT1 101615Z 16006KT 33/22 A3005 RMK A01 T03250219  RH  054%=      5-min Rain = 0
KWT1 101616Z 19006G13KT 32/22 A3005 RMK A01 T03240218  RH  054%=      5-min Rain = 0
KWT1 101617Z 21011KT 33/22 A3005 RMK A01 T03250218  RH  053%=      5-min Rain = 0
KWT1 101618Z 21009KT 32/22 A3005 RMK A01 T03240217  RH  053%=      5-min Rain = 0
KWT1 101619Z 20008KT 32/22 A3005 RMK A01 T03220215  RH  053%=      5-min Rain = 0
KWT1 101620Z 20008G13KT 32/22 A3005 RMK A01 T03210215  RH  053%=      5-min Rain = 0
KWT1 101621Z 16010KT 32/22 A3005 RMK A01 T03210217  RH  054%=      5-min Rain = 0
KWT1 101622Z 17008KT 32/22 A3005 RMK A01 T03220217  RH  054%=      5-min Rain = 0
KWT1 101623Z 15006KT 32/22 A3005 RMK A01 T03220218  RH  054%=      5-min Rain = 0
KWT1 101624Z 16006KT 33/22 A3005 RMK A01 T03260219  RH  053%=      5-min Rain = 0
KWT1 101625Z 17007KT 33/22 A3005 RMK A01 T03300220  RH  052%=      5-min Rain = 0
KWT1 101626Z 17007G12KT 33/22 A3005 RMK A01 T03340218  RH  051%=      5-min Rain = 0
KWT1 101627Z 20007G12KT 34/22 A3005 RMK A01 T03360217  RH  050%=      5-min Rain = 0
KWT1 101628Z 18009KT 33/22 A3005 RMK A01 T03340216  RH  050%=      5-min Rain = 0
KWT1 101629Z 19010KT 33/22 A3005 RMK A01 T03310215  RH  051%=      5-min Rain = 0
KWT1 101630Z 19008KT 33/21 A3005 RMK A01 T03270214  RH  052%=      5-min Rain = 0
KWT1 101631Z 19007KT 33/21 A3005 RMK A01 T03260214  RH  052%=      5-min Rain = 0
KWT1 101632Z 19005KT 33/22 A3005 RMK A01 T03250215  RH  053%=      5-min Rain = 0
KWT1 101633Z 18006KT 32/21 A3005 RMK A01 T03240214  RH  052%=      5-min Rain = 0
KWT1 101634Z 19005KT 33/21 A3005 RMK A01 T03250214  RH  052%=      5-min Rain = 0
KWT1 101635Z 19007KT 33/21 A3005 RMK A01 T03250214  RH  052%=      5-min Rain = 0
KWT1 101636Z 18009KT 33/21 A3005 RMK A01 T03260214  RH  052%=      5-min Rain = 0
KWT1 101637Z 19009KT 33/21 A3005 RMK A01 T03280214  RH  051%=      5-min Rain = 0
KWT1 101638Z 19008KT 33/21 A3005 RMK A01 T03280214  RH  051%=      5-min Rain = 0
KWT1 101639Z 19007KT 33/21 A3005 RMK A01 T03280214  RH  051%=      5-min Rain = 0
KWT1 101640Z 18007KT 33/21 A3005 RMK A01 T03300212  RH  050%=      5-min Rain = 0
KWT1 101641Z 17004KT 33/21 A3005 RMK A01 T03300212  RH  050%=      5-min Rain = 0
KWT1 101642Z 18006G11KT 33/21 A3005 RMK A01 T03300213  RH  050%=      5-min Rain = 0
KWT1 101643Z 20009KT 33/21 A3004 RMK A01 T03320211  RH  049%=      5-min Rain = 0
KWT1 101644Z 18011KT 33/21 A3004 RMK A01 T03320211  RH  049%=      5-min Rain = 0
KWT1 101645Z 17011KT 33/21 A3004 RMK A01 T03310212  RH  049%=      5-min Rain = 0
KWT1 101646Z 20007KT 33/21 A3004 RMK A01 T03300212  RH  050%=      5-min Rain = 0
KWT1 101647Z 19008KT 33/21 A3004 RMK A01 T03300212  RH  050%=      5-min Rain = 0
KWT1 101648Z 18008KT 33/21 A3004 RMK A01 T03310211  RH  049%=      5-min Rain = 0
KWT1 101649Z 18008KT 33/21 A3004 RMK A01 T03300211  RH  050%=      5-min Rain = 0
KWT1 101650Z 20008KT 33/21 A3004 RMK A01 T03310214  RH  050%=      5-min Rain = 0
KWT1 101651Z 20005KT 33/21 A3004 RMK A01 T03300211  RH  050%=      5-min Rain = 0
KWT1 101652Z 21003KT 33/21 A3004 RMK A01 T03280212  RH  050%=      5-min Rain = 0
KWT1 101653Z 18010KT 33/21 A3004 RMK A01 T03320214  RH  050%=      5-min Rain = 0
KWT1 101654Z 19005KT 34/21 A3004 RMK A01 T03380211  RH  048%=      5-min Rain = 0
KWT1 101655Z 16005KT 34/21 A3004 RMK A01 T03360210  RH  048%=      5-min Rain = 0
KWT1 101656Z 19005KT 34/21 A3005 RMK A01 T03360212  RH  048%=      5-min Rain = 0
KWT1 101657Z 21005KT 34/21 A3005 RMK A01 T03380212  RH  048%=      5-min Rain = 0
KWT1 101658Z 21008KT 34/21 A3005 RMK A01 T03380214  RH  048%=      5-min Rain = 0
KWT1 101659Z 19006KT 34/22 A3005 RMK A01 T03420215  RH  048%=      5-min Rain = 0
KWT1 101700Z 17008KT 34/21 A3005 RMK A01 T03440213  RH  047%=      5-min Rain = 0
KWT1 101701Z 17008KT 34/21 A3005 RMK A01 T03410213  RH  047%=      5-min Rain = 0
KWT1 101702Z 18006KT 34/21 A3005 RMK A01 T03400212  RH  047%=      5-min Rain = 0
KWT1 101703Z 16007KT 34/21 A3005 RMK A01 T03380212  RH  048%=      5-min Rain = 0
KWT1 101704Z 14008KT 34/21 A3005 RMK A01 T03360211  RH  048%=      5-min Rain = 0
KWT1 101705Z 14008KT 34/21 A3005 RMK A01 T03360212  RH  048%=      5-min Rain = 0
KWT1 101706Z 16010KT 34/21 A3005 RMK A01 T03410211  RH  047%=      5-min Rain = 0
KWT1 101707Z 16009KT 34/21 A3005 RMK A01 T03420211  RH  047%=      5-min Rain = 0
KWT1 101708Z 15007KT 34/21 A3005 RMK A01 T03420213  RH  047%=      5-min Rain = 0
KWT1 101709Z 18004KT 34/21 A3005 RMK A01 T03440212  RH  046%=      5-min Rain = 0
KWT1 101710Z 20004KT 35/21 A3005 RMK A01 T03460214  RH  046%=      5-min Rain = 0
KWT1 101711Z 18002KT 35/21 A3005 RMK A01 T03460212  RH  046%=      5-min Rain = 0
KWT1 101712Z 19002KT 34/21 A3005 RMK A01 T03440211  RH  046%=      5-min Rain = 0
KWT1 101713Z 18007KT 34/21 A3005 RMK A01 T03410211  RH  047%=      5-min Rain = 0
KWT1 101714Z 19009KT 34/21 A3005 RMK A01 T03430210  RH  046%=      5-min Rain = 0
KWT1 101715Z 20010KT 35/21 A3005 RMK A01 T03470207  RH  044%=      5-min Rain = 0
KWT1 101716Z 20007KT 34/21 A3005 RMK A01 T03430207  RH  045%=      5-min Rain = 0
KWT1 101717Z 19011KT 34/21 A3005 RMK A01 T03410208  RH  046%=      5-min Rain = 0
KWT1 101718Z 20008KT 34/21 A3005 RMK A01 T03420208  RH  046%=      5-min Rain = 0
KWT1 101719Z 17008KT 34/21 A3005 RMK A01 T03410208  RH  046%=      5-min Rain = 0
KWT1 101720Z 17009KT 34/21 A3005 RMK A01 T03430209  RH  046%=      5-min Rain = 0
KWT1 101721Z 20010KT 34/21 A3005 RMK A01 T03440208  RH  045%=      5-min Rain = 0
KWT1 101722Z 20006KT 34/21 A3005 RMK A01 T03410206  RH  045%=      5-min Rain = 0
KWT1 101723Z 17006KT 34/21 A3005 RMK A01 T03390207  RH  046%=      5-min Rain = 0
KWT1 101724Z 15007KT 34/21 A3005 RMK A01 T03390206  RH  046%=      5-min Rain = 0
KWT1 101725Z 13007KT 34/21 A3005 RMK A01 T03410206  RH  045%=      5-min Rain = 0
KWT1 101726Z 13008KT 34/21 A3005 RMK A01 T03430206  RH  045%=      5-min Rain = 0
KWT1 101727Z 15004KT 34/21 A3005 RMK A01 T03440205  RH  044%=      5-min Rain = 0
KWT1 101728Z 20003KT 34/21 A3005 RMK A01 T03430207  RH  045%=      5-min Rain = 0
KWT1 101729Z 15007KT 34/21 A3005 RMK A01 T03440210  RH  046%=      5-min Rain = 0
KWT1 101730Z 17009KT 35/21 A3005 RMK A01 T03490210  RH  044%=      5-min Rain = 0
KWT1 101731Z 15004KT 35/21 A3005 RMK A01 T03500205  RH  043%=      5-min Rain = 0
KWT1 101732Z 16003KT 35/21 A3005 RMK A01 T03490205  RH  043%=      5-min Rain = 0
KWT1 101733Z 18006G11KT 35/21 A3005 RMK A01 T03490206  RH  044%=      5-min Rain = 0
KWT1 101734Z 14007KT 35/21 A3005 RMK A01 T03480209  RH  044%=      5-min Rain = 0
KWT1 101735Z 13005KT 35/21 A3005 RMK A01 T03510206  RH  043%=      5-min Rain = 0
KWT1 101736Z 12007KT 35/21 A3005 RMK A01 T03510206  RH  043%=      5-min Rain = 0
KWT1 101737Z 16010KT 35/21 A3005 RMK A01 T03520206  RH  042%=      5-min Rain = 0
KWT1 101738Z 17008KT 35/21 A3005 RMK A01 T03520211  RH  044%=      5-min Rain = 0
KWT1 101739Z 16005KT 35/21 A3005 RMK A01 T03510211  RH  044%=      5-min Rain = 0
KWT1 101740Z 14007KT 35/21 A3005 RMK A01 T03520212  RH  044%=      5-min Rain = 0
KWT1 101741Z 15010KT 35/21 A3005 RMK A01 T03540212  RH  044%=      5-min Rain = 0
KWT1 101742Z 15008KT 35/21 A3005 RMK A01 T03520211  RH  044%=      5-min Rain = 0
KWT1 101743Z 13008KT 35/21 A3005 RMK A01 T03520211  RH  044%=      5-min Rain = 0
KWT1 101744Z 13004KT 35/21 A3005 RMK A01 T03510210  RH  044%=      5-min Rain = 0
KWT1 101745Z 12003KT 35/21 A3005 RMK A01 T03490210  RH  044%=      5-min Rain = 0
KWT1 101746Z 08002KT 35/21 A3005 RMK A01 T03480208  RH  044%=      5-min Rain = 0
KWT1 101747Z 13002KT 35/21 A3005 RMK A01 T03470208  RH  045%=      5-min Rain = 0
KWT1 101748Z 14006KT 35/21 A3005 RMK A01 T03480210  RH  045%=      5-min Rain = 0
KWT1 101749Z 15006KT 35/21 A3005 RMK A01 T03510210  RH  044%=      5-min Rain = 0
KWT1 101750Z 15007G12KT 35/21 A3005 RMK A01 T03510210  RH  044%=      5-min Rain = 0
KWT1 101751Z 14011KT 35/21 A3005 RMK A01 T03530211  RH  044%=      5-min Rain = 0
KWT1 101752Z 12010KT 36/21 A3005 RMK A01 T03550211  RH  043%=      5-min Rain = 0
KWT1 101753Z 13011KT 36/21 A3005 RMK A01 T03560211  RH  043%=      5-min Rain = 0
KWT1 101754Z 13010KT 36/21 A3005 RMK A01 T03550210  RH  043%=      5-min Rain = 0
KWT1 101755Z 12008KT 35/21 A3005 RMK A01 T03530211  RH  044%=      5-min Rain = 0
KWT1 101756Z 13007KT 35/21 A3005 RMK A01 T03530211  RH  044%=      5-min Rain = 0
KWT1 101757Z 14008KT 36/21 A3005 RMK A01 T03550212  RH  044%=      5-min Rain = 0
KWT1 101758Z 11004KT 36/21 A3005 RMK A01 T03570211  RH  043%=      5-min Rain = 0
KWT1 101759Z 13004G10KT 36/21 A3005 RMK A01 T03580210  RH  042%=      5-min Rain = 0
KWT1 101800Z 11006KT 36/21 A3005 RMK A01 T03580210  RH  042%=      5-min Rain = 0
KWT1 101801Z 09006KT 36/21 A3005 RMK A01 T03580210  RH  042%=      5-min Rain = 0
KWT1 101802Z 13008KT 36/21 A3005 RMK A01 T03610209  RH  041%=      5-min Rain = 0
KWT1 101803Z 15009KT 36/20 A3005 RMK A01 T03590204  RH  041%=      5-min Rain = 0
KWT1 101804Z 15007KT 36/21 A3005 RMK A01 T03570205  RH  041%=      5-min Rain = 0
KWT1 101805Z 14006KT 36/21 A3005 RMK A01 T03590206  RH  041%=      5-min Rain = 0
KWT1 101806Z 15003KT 36/21 A3005 RMK A01 T03580206  RH  041%=      5-min Rain = 0
KWT1 101807Z 14007KT 36/21 A3005 RMK A01 T03580207  RH  041%=      5-min Rain = 0
KWT1 101808Z 14004KT 36/21 A3005 RMK A01 T03580206  RH  041%=      5-min Rain = 0
KWT1 101809Z 13003KT 36/21 A3005 RMK A01 T03580205  RH  041%=      5-min Rain = 0
KWT1 101810Z 12008KT 36/21 A3005 RMK A01 T03580207  RH  041%=      5-min Rain = 0
KWT1 101811Z 13009KT 36/21 A3005 RMK A01 T03590209  RH  042%=      5-min Rain = 0
KWT1 101812Z 13011G16KT 36/21 A3005 RMK A01 T03630207  RH  040%=      5-min Rain = 0
KWT1 101813Z 13008KT 36/21 A3005 RMK A01 T03610205  RH  040%=      5-min Rain = 0
KWT1 101814Z 10008KT 36/21 A3006 RMK A01 T03590206  RH  041%=      5-min Rain = 0
KWT1 101815Z 05005KT 36/20 A3005 RMK A01 T03590204  RH  041%=      5-min Rain = 0
KWT1 101816Z 06006KT 36/21 A3005 RMK A01 T03570205  RH  041%=      5-min Rain = 0
KWT1 101817Z 09007KT 36/21 A3005 RMK A01 T03590205  RH  041%=      5-min Rain = 0
KWT1 101818Z 08005KT 36/21 A3005 RMK A01 T03620206  RH  040%=      5-min Rain = 0
KWT1 101819Z 08008KT 36/21 A3005 RMK A01 T03640207  RH  040%=      5-min Rain = 0
KWT1 101820Z 08008KT 36/21 A3005 RMK A01 T03640207  RH  040%=      5-min Rain = 0
KWT1 101821Z 08006KT 36/21 A3005 RMK A01 T03630208  RH  041%=      5-min Rain = 0
KWT1 101822Z 10009KT 36/21 A3005 RMK A01 T03640209  RH  041%=      5-min Rain = 0
KWT1 101823Z 11007KT 37/21 A3005 RMK A01 T03650209  RH  040%=      5-min Rain = 0
KWT1 101824Z 11010KT 36/21 A3005 RMK A01 T03640210  RH  041%=      5-min Rain = 0
KWT1 101825Z 13011KT 36/21 A3005 RMK A01 T03620211  RH  042%=      5-min Rain = 0
KWT1 101826Z 15008KT 36/21 A3005 RMK A01 T03620210  RH  041%=      5-min Rain = 0
KWT1 101827Z 12011KT 36/21 A3005 RMK A01 T03610210  RH  042%=      5-min Rain = 0
KWT1 101828Z 14013KT 36/21 A3005 RMK A01 T03630210  RH  041%=      5-min Rain = 0
KWT1 101829Z 13011KT 36/21 A3005 RMK A01 T03630209  RH  041%=      5-min Rain = 0
KWT1 101830Z 16008KT 36/21 A3005 RMK A01 T03630209  RH  041%=      5-min Rain = 0
KWT1 101831Z 14007KT 36/21 A3005 RMK A01 T03590209  RH  042%=      5-min Rain = 0
KWT1 101832Z 12009KT 36/21 A3005 RMK A01 T03600209  RH  042%=      5-min Rain = 0
KWT1 101833Z 14004KT 36/21 A3005 RMK A01 T03610208  RH  041%=      5-min Rain = 0
KWT1 101834Z 10007G13KT 36/21 A3005 RMK A01 T03600208  RH  041%=      5-min Rain = 0
KWT1 101835Z 11011KT 36/21 A3005 RMK A01 T03630208  RH  041%=      5-min Rain = 0
KWT1 101836Z 16012G17KT 37/21 A3005 RMK A01 T03650208  RH  040%=      5-min Rain = 0
KWT1 101837Z 14012KT 36/21 A3005 RMK A01 T03640207  RH  040%=      5-min Rain = 0
KWT1 101838Z 14010KT 36/21 A3005 RMK A01 T03630206  RH  040%=      5-min Rain = 0
KWT1 101839Z 14011KT 37/21 A3005 RMK A01 T03650205  RH  039%=      5-min Rain = 0
KWT1 101840Z 14010KT 37/20 A3005 RMK A01 T03660202  RH  039%=      5-min Rain = 0
KWT1 101841Z 14011KT 37/20 A3005 RMK A01 T03650201  RH  039%=      5-min Rain = 0
KWT1 101842Z 17007KT 37/20 A3005 RMK A01 T03650202  RH  039%=      5-min Rain = 0
KWT1 101843Z 15005KT 37/20 A3005 RMK A01 T03690200  RH  037%=      5-min Rain = 0
KWT1 101844Z 11008G13KT 37/21 A3005 RMK A01 T03710208  RH  039%=      5-min Rain = 0
KWT1 101845Z 12009KT 37/21 A3005 RMK A01 T03720208  RH  039%=      5-min Rain = 0
KWT1 101846Z 09010KT 37/21 A3005 RMK A01 T03690206  RH  039%=      5-min Rain = 0
KWT1 101847Z 10007KT 37/20 A3005 RMK A01 T03660204  RH  039%=      5-min Rain = 0
KWT1 101848Z 10007KT 37/21 A3005 RMK A01 T03650207  RH  040%=      5-min Rain = 0
KWT1 101849Z 12011KT 37/21 A3005 RMK A01 T03690210  RH  040%=      5-min Rain = 0
KWT1 101850Z 13008KT 37/21 A3005 RMK A01 T03700208  RH  039%=      5-min Rain = 0
KWT1 101851Z 08005KT 37/21 A3005 RMK A01 T03660207  RH  040%=      5-min Rain = 0
KWT1 101852Z 05005KT 37/21 A3005 RMK A01 T03650208  RH  040%=      5-min Rain = 0
KWT1 101853Z 06002KT 36/21 A3005 RMK A01 T03630206  RH  040%=      5-min Rain = 0
KWT1 101854Z 01001KT 36/21 A3005 RMK A01 T03620207  RH  041%=      5-min Rain = 0
KWT1 101855Z 09005KT 37/21 A3005 RMK A01 T03650210  RH  041%=      5-min Rain = 0
KWT1 101856Z 13007KT 37/21 A3005 RMK A01 T03680207  RH  039%=      5-min Rain = 0
KWT1 101857Z 16010KT 37/21 A3005 RMK A01 T03690207  RH  039%=      5-min Rain = 0
KWT1 101858Z 18009KT 37/21 A3005 RMK A01 T03690205  RH  039%=      5-min Rain = 0
KWT1 101859Z 18009KT 37/21 A3004 RMK A01 T03680205  RH  039%=      5-min Rain = 0
KWT1 101900Z 15006KT 37/20 A3004 RMK A01 T03650204  RH  039%=      5-min Rain = 0
KWT1 101901Z 13011KT 37/21 A3005 RMK A01 T03690206  RH  039%=      5-min Rain = 0
KWT1 101902Z 12012KT 37/21 A3005 RMK A01 T03740205  RH  037%=      5-min Rain = 0
KWT1 101903Z 13007KT 37/20 A3005 RMK A01 T03730202  RH  037%=      5-min Rain = 0
KWT1 101904Z 10005KT 37/20 A3005 RMK A01 T03680200  RH  038%=      5-min Rain = 0
KWT1 101905Z 13009KT 37/20 A3005 RMK A01 T03660203  RH  039%=      5-min Rain = 0
KWT1 101906Z 12008KT 37/20 A3005 RMK A01 T03680203  RH  038%=      5-min Rain = 0
KWT1 101907Z 10009KT 37/20 A3005 RMK A01 T03670202  RH  038%=      5-min Rain = 0
KWT1 101908Z 09006KT 37/20 A3005 RMK A01 T03670202  RH  038%=      5-min Rain = 0
KWT1 101909Z 11004KT 37/20 A3004 RMK A01 T03670203  RH  039%=      5-min Rain = 0
KWT1 101910Z 12009KT 37/21 A3005 RMK A01 T03690205  RH  039%=      5-min Rain = 0
KWT1 101911Z 12012KT 37/21 A3005 RMK A01 T03720205  RH  038%=      5-min Rain = 0
KWT1 101912Z 12011KT 37/21 A3004 RMK A01 T03720205  RH  038%=      5-min Rain = 0
KWT1 101913Z 15009KT 37/21 A3004 RMK A01 T03720205  RH  038%=      5-min Rain = 0
KWT1 101914Z 17009KT 37/20 A3004 RMK A01 T03720204  RH  038%=      5-min Rain = 0
KWT1 101915Z 17009G14KT 37/20 A3004 RMK A01 T03710202  RH  037%=      5-min Rain = 0
KWT1 101916Z 15011KT 37/20 A3004 RMK A01 T03690204  RH  038%=      5-min Rain = 0
KWT1 101917Z 16011KT 37/20 A3004 RMK A01 T03730204  RH  037%=      5-min Rain = 0
KWT1 101918Z 15010KT 37/20 A3004 RMK A01 T03710202  RH  038%=      5-min Rain = 0
KWT1 101919Z 16008KT 37/20 A3004 RMK A01 T03710203  RH  038%=      5-min Rain = 0
KWT1 101920Z 15006KT 37/20 A3004 RMK A01 T03740201  RH  037%=      5-min Rain = 0
KWT1 101921Z 16011KT 37/20 A3004 RMK A01 T03730201  RH  037%=      5-min Rain = 0
KWT1 101922Z 15010KT 37/20 A3004 RMK A01 T03730202  RH  037%=      5-min Rain = 0
KWT1 101923Z 13011KT 37/20 A3005 RMK A01 T03730201  RH  037%=      5-min Rain = 0
KWT1 101924Z 13008KT 37/20 A3005 RMK A01 T03740201  RH  037%=      5-min Rain = 0
KWT1 101925Z 15005KT 37/20 A3005 RMK A01 T03720200  RH  037%=      5-min Rain = 0
KWT1 101926Z 10005KT 37/20 A3005 RMK A01 T03710200  RH  037%=      5-min Rain = 0
KWT1 101927Z 12007KT 38/20 A3004 RMK A01 T03750203  RH  037%=      5-min Rain = 0
KWT1 101928Z 14007KT 38/20 A3005 RMK A01 T03790204  RH  036%=      5-min Rain = 0
KWT1 101929Z 15007KT 38/20 A3004 RMK A01 T03800202  RH  036%=      5-min Rain = 0
KWT1 101930Z 16006KT 38/20 A3004 RMK A01 T03750200  RH  036%=      5-min Rain = 0
KWT1 101931Z 10010G15KT 38/21 A3004 RMK A01 T03760205  RH  037%=      5-min Rain = 0
KWT1 101932Z 10012KT 38/21 A3004 RMK A01 T03820205  RH  036%=      5-min Rain = 0
KWT1 101933Z 14010KT 38/20 A3004 RMK A01 T03840203  RH  035%=      5-min Rain = 0
KWT1 101934Z 13005KT 38/20 A3004 RMK A01 T03800201  RH  035%=      5-min Rain = 0
KWT1 101935Z 14006KT 38/20 A3004 RMK A01 T03780202  RH  036%=      5-min Rain = 0
KWT1 101936Z 15010KT 38/20 A3004 RMK A01 T03800203  RH  036%=      5-min Rain = 0
KWT1 101937Z 16016KT 38/20 A3004 RMK A01 T03810202  RH  035%=      5-min Rain = 0
KWT1 101938Z 15013KT 38/20 A3004 RMK A01 T03800202  RH  036%=      5-min Rain = 0
KWT1 101939Z 15013KT 38/20 A3004 RMK A01 T03780202  RH  036%=      5-min Rain = 0
KWT1 101940Z 16012KT 37/20 A3004 RMK A01 T03740200  RH  036%=      5-min Rain = 0
KWT1 101941Z 15011KT 37/20 A3004 RMK A01 T03720200  RH  037%=      5-min Rain = 0
KWT1 101942Z 16008KT 37/20 A3004 RMK A01 T03710200  RH  037%=      5-min Rain = 0
KWT1 101943Z 16007KT 37/20 A3004 RMK A01 T03690200  RH  037%=      5-min Rain = 0
KWT1 101944Z 18006KT 37/20 A3004 RMK A01 T03680200  RH  038%=      5-min Rain = 0
KWT1 101945Z 19005KT 37/20 A3004 RMK A01 T03680199  RH  037%=      5-min Rain = 0
KWT1 101946Z 14006G13KT 37/20 A3004 RMK A01 T03670200  RH  038%=      5-min Rain = 0
KWT1 101947Z 13010KT 37/20 A3004 RMK A01 T03710202  RH  037%=      5-min Rain = 0
KWT1 101948Z 15008KT 38/20 A3004 RMK A01 T03760203  RH  037%=      5-min Rain = 0
KWT1 101949Z 18011KT 38/20 A3003 RMK A01 T03780202  RH  036%=      5-min Rain = 0
KWT1 101950Z 18009KT 37/20 A3003 RMK A01 T03740198  RH  036%=      5-min Rain = 0
KWT1 101951Z 17014KT 37/20 A3004 RMK A01 T03730198  RH  036%=      5-min Rain = 0
KWT1 101952Z 15012G17KT 38/20 A3004 RMK A01 T03750198  RH  036%=      5-min Rain = 0
KWT1 101953Z 13012KT 38/20 A3004 RMK A01 T03760196  RH  035%=      5-min Rain = 0
KWT1 101954Z 13014KT 38/20 A3004 RMK A01 T03760196  RH  035%=      5-min Rain = 0
KWT1 101955Z 13013KT 38/20 A3004 RMK A01 T03790198  RH  035%=      5-min Rain = 0
KWT1 101956Z 12013KT 38/20 A3003 RMK A01 T03800196  RH  034%=      5-min Rain = 0
KWT1 101957Z 14012KT 38/20 A3003 RMK A01 T03770195  RH  035%=      5-min Rain = 0
KWT1 101958Z 13011KT 38/20 A3003 RMK A01 T03770197  RH  035%=      5-min Rain = 0
KWT1 101959Z 16011KT 38/20 A3003 RMK A01 T03790197  RH  035%=      5-min Rain = 0
KWT1 102000Z 15008KT 38/19 A3003 RMK A01 T03790194  RH  034%=      5-min Rain = 0
KWT1 102001Z 14010KT 38/20 A3003 RMK A01 T03760196  RH  035%=      5-min Rain = 0
KWT1 102002Z 15009KT 38/20 A3003 RMK A01 T03770196  RH  035%=      5-min Rain = 0
KWT1 102003Z 15005KT 38/19 A3003 RMK A01 T03780194  RH  034%=      5-min Rain = 0
KWT1 102004Z 15006KT 38/20 A3003 RMK A01 T03780195  RH  035%=      5-min Rain = 0
KWT1 102005Z 15006KT 38/20 A3003 RMK A01 T03790195  RH  034%=      5-min Rain = 0
KWT1 102006Z 15010KT 38/20 A3003 RMK A01 T03810196  RH  034%=      5-min Rain = 0
KWT1 102007Z 16010KT 38/19 A3003 RMK A01 T03840193  RH  033%=      5-min Rain = 0
KWT1 102008Z 16012KT 38/20 A3003 RMK A01 T03820195  RH  034%=      5-min Rain = 0
KWT1 102009Z 16012KT 38/19 A3003 RMK A01 T03800192  RH  034%=      5-min Rain = 0
KWT1 102010Z 16010KT 38/19 A3003 RMK A01 T03750191  RH  034%=      5-min Rain = 0
KWT1 102011Z 16007KT 37/19 A3003 RMK A01 T03720192  RH  035%=      5-min Rain = 0
KWT1 102012Z 14011KT 38/20 A3003 RMK A01 T03750195  RH  035%=      5-min Rain = 0
KWT1 102013Z 12008KT 38/20 A3003 RMK A01 T03780196  RH  035%=      5-min Rain = 0
KWT1 102014Z 13009KT 38/20 A3003 RMK A01 T03820196  RH  034%=      5-min Rain = 0
KWT1 102015Z 12010KT 38/20 A3003 RMK A01 T03820197  RH  034%=      5-min Rain = 0
KWT1 102016Z 12008KT 38/20 A3003 RMK A01 T03800196  RH  034%=      5-min Rain = 0
KWT1 102017Z 14009KT 38/20 A3003 RMK A01 T03810197  RH  034%=      5-min Rain = 0
KWT1 102018Z 16010KT 39/20 A3003 RMK A01 T03850195  RH  033%=      5-min Rain = 0
KWT1 102019Z 17011KT 38/19 A3003 RMK A01 T03830191  RH  033%=      5-min Rain = 0
KWT1 102020Z 17011KT 38/19 A3003 RMK A01 T03810191  RH  033%=      5-min Rain = 0
KWT1 102021Z 17008KT 38/19 A3003 RMK A01 T03810191  RH  033%=      5-min Rain = 0
KWT1 102022Z 19006KT 38/19 A3003 RMK A01 T03800192  RH  033%=      5-min Rain = 0
KWT1 102023Z 17007KT 38/19 A3003 RMK A01 T03780191  RH  034%=      5-min Rain = 0
KWT1 102024Z 18009KT 38/19 A3003 RMK A01 T03770191  RH  034%=      5-min Rain = 0
KWT1 102025Z 18010KT 37/19 A3002 RMK A01 T03740189  RH  034%=      5-min Rain = 0
KWT1 102026Z 12006KT 37/19 A3003 RMK A01 T03740190  RH  034%=      5-min Rain = 0
KWT1 102027Z 14010KT 38/19 A3003 RMK A01 T03790193  RH  034%=      5-min Rain = 0
KWT1 102028Z 15012KT 38/19 A3003 RMK A01 T03820192  RH  033%=      5-min Rain = 0
KWT1 102029Z 15009KT 38/19 A3003 RMK A01 T03820192  RH  033%=      5-min Rain = 0
KWT1 102030Z 16009KT 38/19 A3003 RMK A01 T03810191  RH  033%=      5-min Rain = 0
KWT1 102031Z 19008KT 38/19 A3003 RMK A01 T03780190  RH  033%=      5-min Rain = 0
KWT1 102032Z 18004KT 38/19 A3002 RMK A01 T03760191  RH  034%=      5-min Rain = 0
KWT1 102033Z 12006KT 38/19 A3003 RMK A01 T03800192  RH  033%=      5-min Rain = 0
KWT1 102034Z 12008KT 38/19 A3003 RMK A01 T03840190  RH  032%=      5-min Rain = 0
KWT1 102035Z 14012G17KT 39/19 A3003 RMK A01 T03860191  RH  032%=      5-min Rain = 0
KWT1 102036Z 15013KT 39/19 A3003 RMK A01 T03880187  RH  031%=      5-min Rain = 0
KWT1 102037Z 14006KT 39/19 A3002 RMK A01 T03850185  RH  031%=      5-min Rain = 0
KWT1 102038Z 17008G17KT 38/19 A3002 RMK A01 T03820187  RH  032%=      5-min Rain = 0
KWT1 102039Z 17011G16KT 38/19 A3002 RMK A01 T03830187  RH  032%=      5-min Rain = 0
KWT1 102040Z 15010KT 38/19 A3002 RMK A01 T03820188  RH  032%=      5-min Rain = 0
KWT1 102041Z 15010G15KT 38/19 A3002 RMK A01 T03820187  RH  032%=      5-min Rain = 0
KWT1 102042Z 16010KT 38/19 A3002 RMK A01 T03830187  RH  032%=      5-min Rain = 0
KWT1 102043Z 18011KT 38/19 A3002 RMK A01 T03840187  RH  032%=      5-min Rain = 0
KWT1 102044Z 18009KT 38/19 A3002 RMK A01 T03830187  RH  032%=      5-min Rain = 0
KWT1 102045Z 17009KT 38/19 A3002 RMK A01 T03820187  RH  032%=      5-min Rain = 0
KWT1 102046Z 17006KT 38/19 A3002 RMK A01 T03800187  RH  032%=      5-min Rain = 0
KWT1 102047Z 18008G14KT 38/19 A3002 RMK A01 T03800190  RH  033%=      5-min Rain = 0
KWT1 102048Z 18009KT 38/19 A3001 RMK A01 T03830190  RH  033%=      5-min Rain = 0
KWT1 102049Z 18005KT 38/19 A3002 RMK A01 T03820191  RH  033%=      5-min Rain = 0
KWT1 102050Z 15007G13KT 38/19 A3002 RMK A01 T03820192  RH  033%=      5-min Rain = 0
KWT1 102051Z 13011KT 38/19 A3002 RMK A01 T03840194  RH  033%=      5-min Rain = 0
KWT1 102052Z 12012KT 39/19 A3002 RMK A01 T03870194  RH  033%=      5-min Rain = 0
KWT1 102053Z 12008KT 39/20 A3002 RMK A01 T03870195  RH  033%=      5-min Rain = 0
KWT1 102054Z 13009KT 39/20 A3002 RMK A01 T03910197  RH  033%=      5-min Rain = 0
KWT1 102055Z 13012KT 39/19 A3002 RMK A01 T03920194  RH  032%=      5-min Rain = 0
KWT1 102056Z 15011KT 39/19 A3002 RMK A01 T03860194  RH  033%=      5-min Rain = 0
KWT1 102057Z 14012KT 38/19 A3001 RMK A01 T03840194  RH  033%=      5-min Rain = 0
KWT1 102058Z 15010KT 39/19 A3001 RMK A01 T03850193  RH  033%=      5-min Rain = 0
KWT1 102059Z 19007KT 39/19 A3001 RMK A01 T03860190  RH  032%=      5-min Rain = 0
KWT1 102100Z 19006KT 39/19 A3001 RMK A01 T03860187  RH  031%=      5-min Rain = 0
KWT1 102101Z 21006KT 39/19 A3001 RMK A01 T03850186  RH  031%=      5-min Rain = 0
KWT1 102102Z 19006KT 39/19 A3001 RMK A01 T03850185  RH  031%=      5-min Rain = 0
KWT1 102103Z 20007KT 38/19 A3001 RMK A01 T03840185  RH  031%=      5-min Rain = 0
KWT1 102104Z 18004KT 38/18 A3001 RMK A01 T03790184  RH  032%=      5-min Rain = 0
KWT1 102105Z 14009KT 38/19 A3002 RMK A01 T03790188  RH  033%=      5-min Rain = 0
KWT1 102106Z 14008KT 38/19 A3001 RMK A01 T03820191  RH  033%=      5-min Rain = 0
KWT1 102107Z 12006KT 38/19 A3001 RMK A01 T03830191  RH  033%=      5-min Rain = 0
KWT1 102108Z 10006KT 39/19 A3001 RMK A01 T03870192  RH  032%=      5-min Rain = 0
KWT1 102109Z 12006KT 39/19 A3001 RMK A01 T03900192  RH  032%=      5-min Rain = 0
KWT1 102110Z 13010KT 39/19 A3001 RMK A01 T03910192  RH  032%=      5-min Rain = 0
KWT1 102111Z 13011KT 39/19 A3001 RMK A01 T03920191  RH  031%=      5-min Rain = 0
KWT1 102112Z 13010KT 39/19 A3002 RMK A01 T03910191  RH  032%=      5-min Rain = 0
KWT1 102113Z 13009KT 39/19 A3002 RMK A01 T03900191  RH  032%=      5-min Rain = 0
KWT1 102114Z 11008KT 39/19 A3002 RMK A01 T03900189  RH  031%=      5-min Rain = 0
KWT1 102115Z 13006KT 39/19 A3002 RMK A01 T03880190  RH  032%=      5-min Rain = 0
KWT1 102116Z 15006KT 39/19 A3002 RMK A01 T03880191  RH  032%=      5-min Rain = 0
KWT1 102117Z 14009KT 39/19 A3002 RMK A01 T03870190  RH  032%=      5-min Rain = 0
KWT1 102118Z 14009KT 39/19 A3002 RMK A01 T03860191  RH  032%=      5-min Rain = 0
KWT1 102119Z 14012KT 39/19 A3002 RMK A01 T03880191  RH  032%=      5-min Rain = 0
KWT1 102120Z 11010KT 39/19 A3002 RMK A01 T03900192  RH  032%=      5-min Rain = 0
KWT1 102121Z 12012KT 39/19 A3002 RMK A01 T03930193  RH  031%=      5-min Rain = 0
KWT1 102122Z 13013KT 39/19 A3002 RMK A01 T03940192  RH  031%=      5-min Rain = 0
KWT1 102123Z 13011KT 39/19 A3002 RMK A01 T03910190  RH  031%=      5-min Rain = 0
KWT1 102124Z 12008KT 39/19 A3002 RMK A01 T03860191  RH  032%=      5-min Rain = 0
KWT1 102125Z 13009KT 39/19 A3002 RMK A01 T03870191  RH  032%=      5-min Rain = 0
KWT1 102126Z 14009G15KT 39/19 A3002 RMK A01 T03890192  RH  032%=      5-min Rain = 0
KWT1 102127Z 12011KT 39/19 A3002 RMK A01 T03920191  RH  031%=      5-min Rain = 0
KWT1 102128Z 11010KT 39/19 A3002 RMK A01 T03920188  RH  031%=      5-min Rain = 0
KWT1 102129Z 11007KT 39/19 A3002 RMK A01 T03920188  RH  031%=      5-min Rain = 0
KWT1 102130Z 09006KT 39/19 A3002 RMK A01 T03900189  RH  031%=      5-min Rain = 0
KWT1 102131Z 11009KT 39/19 A3002 RMK A01 T03940192  RH  031%=      5-min Rain = 0
KWT1 102132Z 16011KT 40/19 A3002 RMK A01 T03980190  RH  030%=      5-min Rain = 0
KWT1 102133Z 14012KT 40/19 A3002 RMK A01 T03970189  RH  030%=      5-min Rain = 0
KWT1 102134Z 13012KT 40/19 A3002 RMK A01 T03980187  RH  030%=      5-min Rain = 0
KWT1 102135Z 13013KT 40/19 A3002 RMK A01 T03950185  RH  030%=      5-min Rain = 0
KWT1 102136Z 14011KT 39/19 A3002 RMK A01 T03930186  RH  030%=      5-min Rain = 0
KWT1 102137Z 15010KT 39/18 A3002 RMK A01 T03920184  RH  030%=      5-min Rain = 0
KWT1 102138Z 15009KT 39/19 A3002 RMK A01 T03910185  RH  030%=      5-min Rain = 0
KWT1 102139Z 14012G18KT 39/19 A3002 RMK A01 T03910185  RH  030%=      5-min Rain = 0
KWT1 102140Z 14012KT 39/19 A3002 RMK A01 T03940187  RH  030%=      5-min Rain = 0
KWT1 102141Z 14008G13KT 39/19 A3002 RMK A01 T03940186  RH  030%=      5-min Rain = 0
KWT1 102142Z 13007KT 39/19 A3002 RMK A01 T03910186  RH  030%=      5-min Rain = 0
KWT1 102143Z 11009KT 39/19 A3002 RMK A01 T03920187  RH  030%=      5-min Rain = 0
KWT1 102144Z 11008KT 39/19 A3002 RMK A01 T03920187  RH  030%=      5-min Rain = 0
KWT1 102145Z 13009KT 40/19 A3002 RMK A01 T03960188  RH  030%=      5-min Rain = 0
KWT1 102146Z 13007KT 40/19 A3002 RMK A01 T03980186  RH  029%=      5-min Rain = 0
KWT1 102147Z 12004KT 40/18 A3002 RMK A01 T03980182  RH  029%=      5-min Rain = 0
KWT1 102148Z 14003KT 39/18 A3002 RMK A01 T03940179  RH  029%=      5-min Rain = 0
KWT1 102149Z 09006KT 39/18 A3002 RMK A01 T03910181  RH  029%=      5-min Rain = 0
KWT1 102150Z 11006KT 39/18 A3002 RMK A01 T03900182  RH  030%=      5-min Rain = 0
KWT1 102151Z 13011KT 39/18 A3002 RMK A01 T03910181  RH  030%=      5-min Rain = 0
KWT1 102152Z 13011G16KT 39/18 A3002 RMK A01 T03930180  RH  029%=      5-min Rain = 0
KWT1 102153Z 11012KT 39/18 A3002 RMK A01 T03940181  RH  029%=      5-min Rain = 0
KWT1 102154Z 11010KT 40/18 A3002 RMK A01 T03950182  RH  029%=      5-min Rain = 0
KWT1 102155Z 10011KT 40/18 A3002 RMK A01 T03950183  RH  029%=      5-min Rain = 0
KWT1 102156Z 10012KT 40/18 A3002 RMK A01 T03960182  RH  029%=      5-min Rain = 0
KWT1 102157Z 10010KT 39/18 A3002 RMK A01 T03940181  RH  029%=      5-min Rain = 0
KWT1 102158Z 14010KT 39/18 A3002 RMK A01 T03930180  RH  029%=      5-min Rain = 0
KWT1 102159Z 15009KT 39/18 A3002 RMK A01 T03920179  RH  029%=      5-min Rain = 0
KWT1 102200Z 17004KT 39/18 A3002 RMK A01 T03890178  RH  029%=      5-min Rain = 0
KWT1 102201Z 14004KT 39/18 A3001 RMK A01 T03880179  RH  030%=      5-min Rain = 0
KWT1 102202Z 15005KT 39/18 A3001 RMK A01 T03900179  RH  029%=      5-min Rain = 0
KWT1 102203Z 13008G13KT 39/18 A3001 RMK A01 T03910179  RH  029%=      5-min Rain = 0
KWT1 102204Z 15012KT 39/17 A3001 RMK A01 T03940174  RH  028%=      5-min Rain = 0
KWT1 102205Z 15011G16KT 40/17 A3001 RMK A01 T03960170  RH  027%=      5-min Rain = 0
KWT1 102206Z 14010KT 40/17 A3001 RMK A01 T03950170  RH  027%=      5-min Rain = 0
KWT1 102207Z 15010KT 40/17 A3001 RMK A01 T03950171  RH  027%=      5-min Rain = 0
KWT1 102208Z 15009KT 40/18 A3001 RMK A01 T03970176  RH  028%=      5-min Rain = 0
KWT1 102209Z 17014KT 40/18 A3001 RMK A01 T04000177  RH  027%=      5-min Rain = 0
KWT1 102210Z 16011KT 40/18 A3001 RMK A01 T03970175  RH  027%=      5-min Rain = 0
KWT1 102211Z 14014KT 40/17 A3001 RMK A01 T03950170  RH  027%=      5-min Rain = 0
KWT1 102212Z 15016KT 40/16 A3001 RMK A01 T03950162  RH  026%=      5-min Rain = 0
KWT1 102213Z 15016KT 39/16 A30 RMK A01 T03940162  RH  026%=      5-min Rain = 0
KWT1 102214Z 14015KT 39/16 A30 RMK A01 T03940162  RH  026%=      5-min Rain = 0
KWT1 102215Z 14015G20KT 39/17 A30 RMK A01 T03920166  RH  027%=      5-min Rain = 0
KWT1 102216Z 15014KT 39/17 A30 RMK A01 T03920165  RH  027%=      5-min Rain = 0
KWT1 102217Z 15011KT 39/17 A30 RMK A01 T03910168  RH  027%=      5-min Rain = 0
KWT1 102218Z 15011KT 39/17 A30 RMK A01 T03900168  RH  027%=      5-min Rain = 0
KWT1 102219Z 15011KT 39/17 A30 RMK A01 T03900168  RH  027%=      5-min Rain = 0
KWT1 102220Z 15016KT 39/17 A30 RMK A01 T03910168  RH  027%=      5-min Rain = 0
KWT1 102221Z 15012G17KT 39/17 A30 RMK A01 T03910167  RH  027%=      5-min Rain = 0
KWT1 102222Z 15011KT 39/17 A30 RMK A01 T03900168  RH  027%=      5-min Rain = 0
KWT1 102223Z 16013KT 39/17 A30 RMK A01 T03930171  RH  027%=      5-min Rain = 0
KWT1 102224Z 13012KT 39/17 A30 RMK A01 T03940172  RH  027%=      5-min Rain = 0
KWT1 102225Z 13012KT 39/17 A30 RMK A01 T03930170  RH  027%=      5-min Rain = 0
KWT1 102226Z 14014KT 39/17 A30 RMK A01 T03930171  RH  027%=      5-min Rain = 0
KWT1 102227Z 13011KT 39/17 A30 RMK A01 T03930172  RH  028%=      5-min Rain = 0
KWT1 102228Z 13011KT 39/17 A30 RMK A01 T03920172  RH  028%=      5-min Rain = 0
KWT1 102229Z 15013KT 39/17 A30 RMK A01 T03920173  RH  028%=      5-min Rain = 0
KWT1 102230Z 16013KT 40/18 A30 RMK A01 T03950175  RH  028%=      5-min Rain = 0
KWT1 102231Z 16012KT 39/17 A30 RMK A01 T03930172  RH  028%=      5-min Rain = 0
KWT1 102232Z 15012KT 39/17 A30 RMK A01 T03890170  RH  028%=      5-min Rain = 0
KWT1 102233Z 16013KT 39/17 A30 RMK A01 T03900169  RH  028%=      5-min Rain = 0
KWT1 102234Z 15012KT 39/17 A30 RMK A01 T03900167  RH  027%=      5-min Rain = 0
KWT1 102235Z 14011KT 39/17 A30 RMK A01 T03890168  RH  027%=      5-min Rain = 0
KWT1 102236Z 15014KT 39/17 A30 RMK A01 T03890167  RH  027%=      5-min Rain = 0
KWT1 102237Z 15012KT 39/17 A30 RMK A01 T03900166  RH  027%=      5-min Rain = 0
KWT1 102238Z 15009KT 39/17 A30 RMK A01 T03900167  RH  027%=      5-min Rain = 0
KWT1 102239Z 16015KT 39/17 A30 RMK A01 T03940167  RH  027%=      5-min Rain = 0
KWT1 102240Z 15012KT 39/17 A30 RMK A01 T03930165  RH  026%=      5-min Rain = 0
KWT1 102241Z 14012KT 39/17 A30 RMK A01 T03920167  RH  027%=      5-min Rain = 0
KWT1 102242Z 14009KT 39/17 A3001 RMK A01 T03920169  RH  027%=      5-min Rain = 0
KWT1 102243Z 15007KT 39/17 A3001 RMK A01 T03920168  RH  027%=      5-min Rain = 0
KWT1 102244Z 17012KT 39/17 A3001 RMK A01 T03930166  RH  027%=      5-min Rain = 0
KWT1 102245Z 17008KT 39/16 A3001 RMK A01 T03910163  RH  026%=      5-min Rain = 0
KWT1 102246Z 17009KT 39/16 A3001 RMK A01 T03920160  RH  026%=      5-min Rain = 0
KWT1 102247Z 16008KT 39/16 A3001 RMK A01 T03940162  RH  026%=      5-min Rain = 0
KWT1 102248Z 17012KT 40/17 A3001 RMK A01 T03950165  RH  026%=      5-min Rain = 0
KWT1 102249Z 16014KT 39/17 A3001 RMK A01 T03940170  RH  027%=      5-min Rain = 0
KWT1 102250Z 16013KT 39/17 A3001 RMK A01 T03940171  RH  027%=      5-min Rain = 0
KWT1 102251Z 15011KT 40/17 A3001 RMK A01 T03950171  RH  027%=      5-min Rain = 0
KWT1 102252Z 15010KT 39/17 A3001 RMK A01 T03940166  RH  026%=      5-min Rain = 0
KWT1 102253Z 14013KT 39/17 A3001 RMK A01 T03930167  RH  027%=      5-min Rain = 0
KWT1 102254Z 14012KT 39/17 A3001 RMK A01 T03910166  RH  027%=      5-min Rain = 0
KWT1 102255Z 13009KT 39/17 A3001 RMK A01 T03900166  RH  027%=      5-min Rain = 0
KWT1 102256Z 14008KT 39/17 A3001 RMK A01 T03880167  RH  027%=      5-min Rain = 0
KWT1 102257Z 14010KT 39/17 A30 RMK A01 T03880170  RH  028%=      5-min Rain = 0
KWT1 102258Z 14011KT 39/17 A30 RMK A01 T03900172  RH  028%=      5-min Rain = 0
KWT1 102259Z 14011KT 39/17 A30 RMK A01 T03920173  RH  028%=      5-min Rain = 0
KWT1 102300Z 15012KT 40/18 A30 RMK A01 T03950176  RH  028%=      5-min Rain = 0
KWT1 102301Z 16010KT 40/18 A30 RMK A01 T03960178  RH  028%=      5-min Rain = 0
KWT1 102302Z 15011KT 40/18 A30 RMK A01 T03950178  RH  028%=      5-min Rain = 0
KWT1 102303Z 15012KT 39/18 A30 RMK A01 T03940177  RH  028%=      5-min Rain = 0
KWT1 102304Z 16010KT 39/17 A30 RMK A01 T03910174  RH  028%=      5-min Rain = 0
KWT1 102305Z 17008KT 39/18 A30 RMK A01 T03910176  RH  029%=      5-min Rain = 0
KWT1 102306Z 16007KT 39/18 A30 RMK A01 T03900177  RH  029%=      5-min Rain = 0
KWT1 102307Z 16009KT 39/18 A30 RMK A01 T03920178  RH  029%=      5-min Rain = 0
KWT1 102308Z 17010G15KT 39/18 A30 RMK A01 T03930179  RH  029%=      5-min Rain = 0
KWT1 102309Z 16016KT 39/18 A30 RMK A01 T03930180  RH  029%=      5-min Rain = 0
KWT1 102310Z 16012KT 39/18 A30 RMK A01 T03920180  RH  029%=      5-min Rain = 0
KWT1 102311Z 16014KT 39/18 A30 RMK A01 T03910181  RH  029%=      5-min Rain = 0
KWT1 102312Z 16011KT 39/18 A30 RMK A01 T03910180  RH  029%=      5-min Rain = 0
KWT1 102313Z 17011KT 39/18 A30 RMK A01 T03890181  RH  030%=      5-min Rain = 0
KWT1 102314Z 15009KT 39/18 A30 RMK A01 T03880184  RH  031%=      5-min Rain = 0
KWT1 102315Z 13011KT 39/19 A30 RMK A01 T03890188  RH  031%=      5-min Rain = 0
KWT1 102316Z 13010KT 39/20 A30 RMK A01 T03910195  RH  032%=      5-min Rain = 0
KWT1 102317Z 15011KT 39/20 A30 RMK A01 T03910197  RH  033%=      5-min Rain = 0
KWT1 102318Z 12013KT 39/20 A30 RMK A01 T03890198  RH  033%=      5-min Rain = 0
KWT1 102319Z 12011KT 39/20 A30 RMK A01 T03860198  RH  034%=      5-min Rain = 0
KWT1 102320Z 13012KT 38/20 A30 RMK A01 T03840200  RH  034%=      5-min Rain = 0
KWT1 102321Z 14011KT 39/20 A30 RMK A01 T03850201  RH  034%=      5-min Rain = 0
KWT1 102322Z 15013G18KT 39/20 A30 RMK A01 T03850198  RH  034%=      5-min Rain = 0
KWT1 102323Z 14016G22KT 39/20 A30 RMK A01 T03850196  RH  033%=      5-min Rain = 0
KWT1 102324Z 14018KT 39/19 A30 RMK A01 T03860193  RH  033%=      5-min Rain = 0
KWT1 102325Z 15015G20KT 39/19 A30 RMK A01 T03850194  RH  033%=      5-min Rain = 0
KWT1 102326Z 15014KT 38/20 A30 RMK A01 T03840197  RH  034%=      5-min Rain = 0
KWT1 102327Z 14013G19KT 39/20 A30 RMK A01 T03850199  RH  034%=      5-min Rain = 0
KWT1 102328Z 14014KT 39/20 A30 RMK A01 T03870200  RH  034%=      5-min Rain = 0
KWT1 102329Z 15013KT 39/20 A30 RMK A01 T03870199  RH  034%=      5-min Rain = 0
KWT1 102330Z 14012KT 39/20 A30 RMK A01 T03860198  RH  034%=      5-min Rain = 0
KWT1 102331Z 14016G22KT 39/20 A30 RMK A01 T03860199  RH  034%=      5-min Rain = 0
KWT1 102332Z 14015KT 38/20 A30 RMK A01 T03840197  RH  034%=      5-min Rain = 0
KWT1 102333Z 13014KT 38/20 A30 RMK A01 T03830198  RH  034%=      5-min Rain = 0
KWT1 102334Z 12012G17KT 38/20 A30 RMK A01 T03810198  RH  035%=      5-min Rain = 0
KWT1 102335Z 13014KT 38/20 A30 RMK A01 T03810198  RH  035%=      5-min Rain = 0
KWT1 102336Z 13014KT 38/20 A30 RMK A01 T03820198  RH  034%=      5-min Rain = 0
KWT1 102337Z 13017KT 38/20 A30 RMK A01 T03820197  RH  034%=      5-min Rain = 0
KWT1 102338Z 13014KT 38/20 A30 RMK A01 T03790196  RH  035%=      5-min Rain = 0
KWT1 102339Z 13014KT 38/20 A30 RMK A01 T03790198  RH  035%=      5-min Rain = 0
KWT1 102340Z 13016KT 38/20 A30 RMK A01 T03790198  RH  035%=      5-min Rain = 0
KWT1 102341Z 14016KT 38/20 A30 RMK A01 T03790197  RH  035%=      5-min Rain = 0
KWT1 102342Z 14014KT 38/20 A30 RMK A01 T03790196  RH  035%=      5-min Rain = 0
KWT1 102343Z 13014G21KT 38/20 A30 RMK A01 T03790196  RH  035%=      5-min Rain = 0
KWT1 102344Z 13013KT 38/20 A30 RMK A01 T03790197  RH  035%=      5-min Rain = 0
KWT1 102345Z 13018KT 38/20 A30 RMK A01 T03800196  RH  034%=      5-min Rain = 0
KWT1 102346Z 14014KT 38/20 A30 RMK A01 T03810195  RH  034%=      5-min Rain = 0
KWT1 102347Z 14015G20KT 38/20 A30 RMK A01 T03810195  RH  034%=      5-min Rain = 0
KWT1 102348Z 14016KT 38/19 A30 RMK A01 T03800194  RH  034%=      5-min Rain = 0
KWT1 102349Z 15013KT 38/20 A30 RMK A01 T03790195  RH  034%=      5-min Rain = 0
KWT1 102350Z 14012KT 38/20 A30 RMK A01 T03800196  RH  034%=      5-min Rain = 0
KWT1 102351Z 13014KT 38/20 A30 RMK A01 T03830197  RH  034%=      5-min Rain = 0
KWT1 102352Z 13016G21KT 38/20 A30 RMK A01 T03820196  RH  034%=      5-min Rain = 0
KWT1 102353Z 14017KT 38/20 A30 RMK A01 T03790197  RH  035%=      5-min Rain = 0
KWT1 102354Z 13013G18KT 38/20 A30 RMK A01 T03780198  RH  035%=      5-min Rain = 0
KWT1 102355Z 13012KT 38/20 A30 RMK A01 T03760198  RH  036%=      5-min Rain = 0
KWT1 102356Z 13014KT 38/20 A30 RMK A01 T03760197  RH  035%=      5-min Rain = 0
KWT1 102357Z 15015KT 38/20 A30 RMK A01 T03760198  RH  035%=      5-min Rain = 0
KWT1 102358Z 13013G18KT 38/20 A30 RMK A01 T03760196  RH  035%=      5-min Rain = 0
KWT1 102359Z 14016KT 38/20 A30 RMK A01 T03760196  RH  035%=      5-min Rain = 0
KWT1 110000Z 13016KT 38/20 A30 RMK A01 T03760196  RH  035%=      5-min Rain = 0
KWT1 110001Z 14017KT 38/20 A30 RMK A01 T03750195  RH  035%=      5-min Rain = 0
KWT1 110002Z 13016G21KT 38/20 A30 RMK A01 T03760196  RH  035%=      5-min Rain = 0
KWT1 110003Z 14014KT 38/20 A30 RMK A01 T03760195  RH  035%=      5-min Rain = 0
KWT1 110004Z 14014KT 38/20 A30 RMK A01 T03760196  RH  035%=      5-min Rain = 0
KWT1 110005Z 14013KT 38/20 A30 RMK A01 T03760195  RH  035%=      5-min Rain = 0
KWT1 110006Z 13015KT 38/20 A30 RMK A01 T03770196  RH  035%=      5-min Rain = 0
KWT1 110007Z 12014KT 38/20 A30 RMK A01 T03770196  RH  035%=      5-min Rain = 0
KWT1 110008Z 13015KT 38/20 A30 RMK A01 T03760196  RH  035%=      5-min Rain = 0
KWT1 110009Z 13016KT 38/20 A30 RMK A01 T03760196  RH  035%=      5-min Rain = 0
KWT1 110010Z 13013KT 38/20 A30 RMK A01 T03760196  RH  035%=      5-min Rain = 0
KWT1 110011Z 13016G21KT 38/20 A30 RMK A01 T03760196  RH  035%=      5-min Rain = 0
KWT1 110012Z 14016KT 38/20 A30 RMK A01 T03750195  RH  035%=      5-min Rain = 0
KWT1 110013Z 14017KT 38/20 A30 RMK A01 T03750195  RH  035%=      5-min Rain = 0
KWT1 110014Z 15013KT 37/20 A30 RMK A01 T03740195  RH  035%=      5-min Rain = 0
KWT1 110015Z 14015KT 38/20 A30 RMK A01 T03750195  RH  035%=      5-min Rain = 0
KWT1 110016Z 13015KT 38/19 A30 RMK A01 T03760194  RH  035%=      5-min Rain = 0
KWT1 110017Z 13017KT 38/19 A30 RMK A01 T03750194  RH  035%=      5-min Rain = 0
KWT1 110018Z 13019KT 37/19 A30 RMK A01 T03730194  RH  035%=      5-min Rain = 0
KWT1 110019Z 14015KT 37/19 A30 RMK A01 T03720194  RH  035%=      5-min Rain = 0
KWT1 110020Z 14014KT 37/19 A30 RMK A01 T03720194  RH  035%=      5-min Rain = 0
KWT1 110021Z 13014KT 37/19 A30 RMK A01 T03720194  RH  035%=      5-min Rain = 0
KWT1 110022Z 13014KT 37/19 A30 RMK A01 T03730194  RH  035%=      5-min Rain = 0
KWT1 110023Z 12013KT 37/19 A30 RMK A01 T03730194  RH  035%=      5-min Rain = 0
KWT1 110024Z 14015G22KT 37/19 A30 RMK A01 T03730194  RH  035%=      5-min Rain = 0
KWT1 110025Z 14016G21KT 37/19 A30 RMK A01 T03720194  RH  035%=      5-min Rain = 0
KWT1 110026Z 14014G19KT 37/19 A30 RMK A01 T03720194  RH  036%=      5-min Rain = 0
KWT1 110027Z 13015KT 37/19 A30 RMK A01 T03710194  RH  036%=      5-min Rain = 0
KWT1 110028Z 14015KT 37/19 A30 RMK A01 T03710194  RH  036%=      5-min Rain = 0
KWT1 110029Z 14015KT 37/20 A30 RMK A01 T03710195  RH  036%=      5-min Rain = 0
KWT1 110030Z 14013KT 37/19 A30 RMK A01 T03710194  RH  036%=      5-min Rain = 0
KWT1 110031Z 14015KT 37/19 A30 RMK A01 T03710194  RH  036%=      5-min Rain = 0
KWT1 110032Z 14016KT 37/19 A30 RMK A01 T03710194  RH  036%=      5-min Rain = 0
KWT1 110033Z 14016KT 37/19 A30 RMK A01 T03710194  RH  036%=      5-min Rain = 0
KWT1 110034Z 14014G20KT 37/19 A30 RMK A01 T03700194  RH  036%=      5-min Rain = 0
KWT1 110035Z 14012KT 37/20 A30 RMK A01 T03690195  RH  036%=      5-min Rain = 0
KWT1 110036Z 14012KT 37/20 A30 RMK A01 T03680195  RH  037%=      5-min Rain = 0
KWT1 110037Z 14011G16KT 37/20 A30 RMK A01 T03690196  RH  037%=      5-min Rain = 0
KWT1 110038Z 15015KT 37/20 A30 RMK A01 T03700196  RH  036%=      5-min Rain = 0
KWT1 110039Z 15015KT 37/19 A30 RMK A01 T03700194  RH  036%=      5-min Rain = 0
KWT1 110040Z 15012KT 37/19 A30 RMK A01 T03700194  RH  036%=      5-min Rain = 0
KWT1 110041Z 14015KT 37/19 A30 RMK A01 T03690194  RH  036%=      5-min Rain = 0
KWT1 110042Z 14013KT 37/19 A30 RMK A01 T03690194  RH  036%=      5-min Rain = 0
KWT1 110043Z 14016KT 37/19 A30 RMK A01 T03680194  RH  036%=      5-min Rain = 0
KWT1 110044Z 14015KT 37/19 A30 RMK A01 T03680194  RH  036%=      5-min Rain = 0
KWT1 110045Z 14015KT 37/19 A30 RMK A01 T03680194  RH  036%=      5-min Rain = 0
KWT1 110046Z 14015G20KT 37/19 A30 RMK A01 T03670194  RH  036%=      5-min Rain = 0
KWT1 110047Z 14016KT 37/19 A30 RMK A01 T03670194  RH  037%=      5-min Rain = 0
KWT1 110048Z 14013KT 37/19 A30 RMK A01 T03660194  RH  037%=      5-min Rain = 0
KWT1 110049Z 13013KT 37/20 A30 RMK A01 T03660195  RH  037%=      5-min Rain = 0
KWT1 110050Z 14016KT 37/19 A30 RMK A01 T03660194  RH  037%=      5-min Rain = 0
KWT1 110051Z 14017KT 37/19 A30 RMK A01 T03650194  RH  037%=      5-min Rain = 0
KWT1 110052Z 14016KT 36/19 A30 RMK A01 T03640194  RH  037%=      5-min Rain = 0
KWT1 110053Z 14016KT 36/19 A30 RMK A01 T03630194  RH  037%=      5-min Rain = 0
KWT1 110054Z 14014KT 36/19 A30 RMK A01 T03630194  RH  037%=      5-min Rain = 0
KWT1 110055Z 14010KT 36/20 A30 RMK A01 T03630195  RH  037%=      5-min Rain = 0
KWT1 110056Z 14011KT 36/19 A30 RMK A01 T03630194  RH  037%=      5-min Rain = 0
KWT1 110057Z 15015KT 36/19 A30 RMK A01 T03640194  RH  037%=      5-min Rain = 0
KWT1 110058Z 15013KT 36/19 A30 RMK A01 T03640193  RH  037%=      5-min Rain = 0
KWT1 110059Z 16013KT 36/19 A30 RMK A01 T03640193  RH  037%=      5-min Rain = 0
KWT1 110100Z 15013KT 36/19 A30 RMK A01 T03630194  RH  037%=      5-min Rain = 0
KWT1 110101Z 15015KT 36/19 A30 RMK A01 T03630194  RH  037%=      5-min Rain = 0
KWT1 110102Z 15014G20KT 36/19 A30 RMK A01 T03630194  RH  037%=      5-min Rain = 0
KWT1 110103Z 14015KT 36/19 A30 RMK A01 T03630194  RH  037%=      5-min Rain = 0
KWT1 110104Z 14014KT 36/19 A30 RMK A01 T03620193  RH  037%=      5-min Rain = 0
KWT1 110105Z 14016KT 36/19 A30 RMK A01 T03620194  RH  037%=      5-min Rain = 0
KWT1 110106Z 14013KT 36/19 A30 RMK A01 T03620194  RH  037%=      5-min Rain = 0
KWT1 110107Z 14015KT 36/19 A30 RMK A01 T03610194  RH  037%=      5-min Rain = 0
KWT1 110108Z 14014KT 36/19 A30 RMK A01 T03610193  RH  037%=      5-min Rain = 0
KWT1 110109Z 14015KT 36/19 A30 RMK A01 T03610193  RH  037%=      5-min Rain = 0
KWT1 110110Z 15014KT 36/19 A30 RMK A01 T03610193  RH  037%=      5-min Rain = 0
KWT1 110111Z 15014KT 36/19 A30 RMK A01 T03610193  RH  037%=      5-min Rain = 0
KWT1 110112Z 15016KT 36/19 A30 RMK A01 T03600193  RH  038%=      5-min Rain = 0
KWT1 110113Z 14014KT 36/19 A30 RMK A01 T03590193  RH  038%=      5-min Rain = 0
KWT1 110114Z 14015KT 36/19 A30 RMK A01 T03590193  RH  038%=      5-min Rain = 0
KWT1 110115Z 14016KT 36/19 A30 RMK A01 T03590193  RH  038%=      5-min Rain = 0
KWT1 110116Z 14017KT 36/19 A30 RMK A01 T03580193  RH  038%=      5-min Rain = 0
KWT1 110117Z 14014KT 36/19 A30 RMK A01 T03580193  RH  038%=      5-min Rain = 0
KWT1 110118Z 14015KT 36/19 A30 RMK A01 T03580193  RH  038%=      5-min Rain = 0
KWT1 110119Z 15017KT 36/19 A30 RMK A01 T03570192  RH  038%=      5-min Rain = 0
KWT1 110120Z 14015KT 36/19 A30 RMK A01 T03570192  RH  038%=      5-min Rain = 0
KWT1 110121Z 15012KT 36/19 A30 RMK A01 T03570192  RH  038%=      5-min Rain = 0
KWT1 110122Z 15011KT 36/19 A30 RMK A01 T03570193  RH  038%=      5-min Rain = 0
KWT1 110123Z 14014KT 36/19 A30 RMK A01 T03570192  RH  038%=      5-min Rain = 0
KWT1 110124Z 14012KT 36/19 A30 RMK A01 T03560192  RH  038%=      5-min Rain = 0
KWT1 110125Z 15014KT 36/19 A30 RMK A01 T03560191  RH  038%=      5-min Rain = 0
KWT1 110126Z 15014KT 36/19 A30 RMK A01 T03560191  RH  038%=      5-min Rain = 0
KWT1 110127Z 15013KT 36/19 A30 RMK A01 T03550191  RH  038%=      5-min Rain = 0
KWT1 110128Z 15013KT 36/19 A30 RMK A01 T03550191  RH  038%=      5-min Rain = 0
KWT1 110129Z 14015KT 36/19 A30 RMK A01 T03550191  RH  038%=      5-min Rain = 0
KWT1 110130Z 14015KT 35/19 A30 RMK A01 T03540191  RH  038%=      5-min Rain = 0
KWT1 110131Z 15015KT 35/19 A30 RMK A01 T03540192  RH  039%=      5-min Rain = 0
KWT1 110132Z 14014KT 35/19 A2999 RMK A01 T03540192  RH  039%=      5-min Rain = 0
KWT1 110133Z 15018KT 35/19 A2999 RMK A01 T03530192  RH  039%=      5-min Rain = 0
KWT1 110134Z 15015KT 35/19 A2999 RMK A01 T03530192  RH  039%=      5-min Rain = 0
KWT1 110135Z 15016KT 35/19 A2999 RMK A01 T03530192  RH  039%=      5-min Rain = 0
KWT1 110136Z 15014KT 35/19 A2999 RMK A01 T03520192  RH  039%=      5-min Rain = 0
KWT1 110137Z 14010KT 35/19 A2999 RMK A01 T03520193  RH  039%=      5-min Rain = 0
KWT1 110138Z 15014KT 35/19 A2999 RMK A01 T03520193  RH  039%=      5-min Rain = 0
KWT1 110139Z 15014G21KT 35/19 A2999 RMK A01 T03510192  RH  039%=      5-min Rain = 0
KWT1 110140Z 14011KT 35/19 A30 RMK A01 T03510193  RH  039%=      5-min Rain = 0
KWT1 110141Z 14012KT 35/19 A30 RMK A01 T03510193  RH  040%=      5-min Rain = 0
KWT1 110142Z 15013KT 35/19 A30 RMK A01 T03500193  RH  040%=      5-min Rain = 0
KWT1 110143Z 15011KT 35/19 A30 RMK A01 T03500193  RH  040%=      5-min Rain = 0
KWT1 110144Z 15012KT 35/19 A30 RMK A01 T03490194  RH  040%=      5-min Rain = 0
KWT1 110145Z 15013KT 35/19 A30 RMK A01 T03490194  RH  040%=      5-min Rain = 0
KWT1 110146Z 14011KT 35/19 A30 RMK A01 T03480194  RH  041%=      5-min Rain = 0
KWT1 110147Z 14013KT 35/20 A30 RMK A01 T03480196  RH  041%=      5-min Rain = 0
KWT1 110148Z 14012KT 35/20 A30 RMK A01 T03470196  RH  041%=      5-min Rain = 0
KWT1 110149Z 14011KT 35/20 A30 RMK A01 T03470196  RH  041%=      5-min Rain = 0
KWT1 110150Z 14011KT 35/20 A30 RMK A01 T03460197  RH  042%=      5-min Rain = 0
KWT1 110151Z 15012G17KT 35/20 A30 RMK A01 T03460197  RH  042%=      5-min Rain = 0
KWT1 110152Z 15012KT 35/20 A30 RMK A01 T03450198  RH  042%=      5-min Rain = 0
KWT1 110153Z 15012KT 35/20 A30 RMK A01 T03450198  RH  042%=      5-min Rain = 0
KWT1 110154Z 15012KT 34/20 A30 RMK A01 T03440198  RH  042%=      5-min Rain = 0
KWT1 110155Z 15013KT 34/20 A30 RMK A01 T03440198  RH  042%=      5-min Rain = 0
KWT1 110156Z 15013KT 34/20 A30 RMK A01 T03440199  RH  043%=      5-min Rain = 0
KWT1 110157Z 15011KT 34/20 A30 RMK A01 T03440199  RH  043%=      5-min Rain = 0
KWT1 110158Z 15013KT 34/20 A30 RMK A01 T03430199  RH  043%=      5-min Rain = 0
KWT1 110159Z 15010KT 34/20 A30 RMK A01 T03430199  RH  043%=      5-min Rain = 0
KWT1 110200Z 15013G18KT 34/20 A30 RMK A01 T03420199  RH  043%=      5-min Rain = 0
KWT1 110201Z 15011KT 34/20 A30 RMK A01 T03430200  RH  043%=      5-min Rain = 0
KWT1 110202Z 15011KT 34/20 A30 RMK A01 T03420199  RH  043%=      5-min Rain = 0
KWT1 110203Z 15010KT 34/20 A30 RMK A01 T03420199  RH  043%=      5-min Rain = 0
KWT1 110204Z 15011KT 34/20 A30 RMK A01 T03410199  RH  043%=      5-min Rain = 0
KWT1 110205Z 15012KT 34/20 A30 RMK A01 T03410200  RH  044%=      5-min Rain = 0
KWT1 110206Z 15011KT 34/20 A30 RMK A01 T03410200  RH  044%=      5-min Rain = 0
KWT1 110207Z 15011KT 34/20 A30 RMK A01 T03400200  RH  044%=      5-min Rain = 0
KWT1 110208Z 15010KT 34/20 A30 RMK A01 T03400200  RH  044%=      5-min Rain = 0
KWT1 110209Z 15011KT 34/20 A30 RMK A01 T03400200  RH  044%=      5-min Rain = 0
KWT1 110210Z 15010KT 34/20 A30 RMK A01 T03390200  RH  044%=      5-min Rain = 0
KWT1 110211Z 15010KT 34/20 A30 RMK A01 T03390200  RH  044%=      5-min Rain = 0
KWT1 110212Z 15009G14KT 34/20 A30 RMK A01 T03390200  RH  044%=      5-min Rain = 0
KWT1 110213Z 15012KT 34/20 A30 RMK A01 T03380200  RH  044%=      5-min Rain = 0
KWT1 110214Z 15012KT 34/20 A30 RMK A01 T03380200  RH  044%=      5-min Rain = 0
KWT1 110215Z 15013KT 34/20 A30 RMK A01 T03380200  RH  044%=      5-min Rain = 0
KWT1 110216Z 15012KT 34/20 A30 RMK A01 T03380201  RH  045%=      5-min Rain = 0
KWT1 110217Z 15010KT 34/20 A30 RMK A01 T03380200  RH  045%=      5-min Rain = 0
KWT1 110218Z 15010KT 34/20 A30 RMK A01 T03370201  RH  045%=      5-min Rain = 0
KWT1 110219Z 16011KT 34/20 A30 RMK A01 T03370200  RH  045%=      5-min Rain = 0
KWT1 110220Z 15012KT 34/20 A30 RMK A01 T03360200  RH  045%=      5-min Rain = 0
KWT1 110221Z 15011KT 34/20 A30 RMK A01 T03360200  RH  045%=      5-min Rain = 0
KWT1 110222Z 15011KT 34/20 A30 RMK A01 T03360200  RH  045%=      5-min Rain = 0
KWT1 110223Z 15011KT 34/20 A30 RMK A01 T03350200  RH  045%=      5-min Rain = 0
KWT1 110224Z 15010KT 34/20 A30 RMK A01 T03350200  RH  045%=      5-min Rain = 0
KWT1 110225Z 15009KT 34/20 A30 RMK A01 T03350200  RH  045%=      5-min Rain = 0
KWT1 110226Z 15011KT 33/20 A30 RMK A01 T03340200  RH  045%=      5-min Rain = 0
KWT1 110227Z 15011KT 33/20 A30 RMK A01 T03340200  RH  045%=      5-min Rain = 0
KWT1 110228Z 15010KT 33/20 A30 RMK A01 T03340200  RH  045%=      5-min Rain = 0
KWT1 110229Z 15010KT 33/20 A30 RMK A01 T03340200  RH  045%=      5-min Rain = 0
KWT1 110230Z 15010KT 33/20 A30 RMK A01 T03330200  RH  045%=      5-min Rain = 0
KWT1 110231Z 15009KT 33/20 A30 RMK A01 T03330200  RH  046%=      5-min Rain = 0
KWT1 110232Z 15010KT 33/20 A30 RMK A01 T03330200  RH  046%=      5-min Rain = 0
KWT1 110233Z 15009KT 33/20 A30 RMK A01 T03320199  RH  046%=      5-min Rain = 0
KWT1 110234Z 15009KT 33/20 A30 RMK A01 T03320200  RH  046%=      5-min Rain = 0
KWT1 110235Z 15010KT 33/20 A30 RMK A01 T03320200  RH  046%=      5-min Rain = 0
KWT1 110236Z 15009KT 33/20 A30 RMK A01 T03320200  RH  046%=      5-min Rain = 0
KWT1 110237Z 15009KT 33/20 A30 RMK A01 T03310199  RH  046%=      5-min Rain = 0
KWT1 110238Z 15009KT 33/20 A30 RMK A01 T03310200  RH  046%=      5-min Rain = 0
KWT1 110239Z 15010KT 33/20 A30 RMK A01 T03300199  RH  046%=      5-min Rain = 0
KWT1 110240Z 15009KT 33/20 A30 RMK A01 T03300199  RH  046%=      5-min Rain = 0
KWT1 110241Z 15010KT 33/20 A30 RMK A01 T03300199  RH  046%=      5-min Rain = 0
KWT1 110242Z 15012KT 33/20 A30 RMK A01 T03300199  RH  046%=      5-min Rain = 0
KWT1 110243Z 15011KT 33/20 A30 RMK A01 T03300199  RH  046%=      5-min Rain = 0
KWT1 110244Z 15011KT 33/20 A30 RMK A01 T03300199  RH  046%=      5-min Rain = 0
KWT1 110245Z 15012KT 33/20 A30 RMK A01 T03300198  RH  046%=      5-min Rain = 0
KWT1 110246Z 15011KT 33/20 A30 RMK A01 T03300199  RH  046%=      5-min Rain = 0
KWT1 110247Z 15011KT 33/20 A30 RMK A01 T03300198  RH  046%=      5-min Rain = 0
KWT1 110248Z 15010KT 33/20 A30 RMK A01 T03290198  RH  046%=      5-min Rain = 0
KWT1 110249Z 15011KT 33/20 A30 RMK A01 T03290199  RH  046%=      5-min Rain = 0
KWT1 110250Z 15012KT 33/20 A30 RMK A01 T03290199  RH  046%=      5-min Rain = 0
KWT1 110251Z 15011KT 33/20 A30 RMK A01 T03290198  RH  046%=      5-min Rain = 0
KWT1 110252Z 15009KT 33/20 A30 RMK A01 T03290198  RH  046%=      5-min Rain = 0
KWT1 110253Z 15010KT 33/20 A30 RMK A01 T03280198  RH  046%=      5-min Rain = 0
KWT1 110254Z 15011KT 33/20 A30 RMK A01 T03280198  RH  046%=      5-min Rain = 0
KWT1 110255Z 15009KT 33/20 A30 RMK A01 T03280198  RH  046%=      5-min Rain = 0
KWT1 110256Z 15009KT 33/20 A30 RMK A01 T03280198  RH  046%=      5-min Rain = 0
KWT1 110257Z 14008KT 33/20 A30 RMK A01 T03270197  RH  046%=      5-min Rain = 0
KWT1 110258Z 15008KT 33/20 A30 RMK A01 T03270197  RH  047%=      5-min Rain = 0
KWT1 110259Z 14009KT 33/20 A30 RMK A01 T03260197  RH  047%=      5-min Rain = 0
KWT1 110300Z 15010KT 33/20 A30 RMK A01 T03260197  RH  047%=      5-min Rain = 0
KWT1 110301Z 15009KT 33/20 A30 RMK A01 T03260197  RH  047%=      5-min Rain = 0
KWT1 110302Z 15008KT 33/20 A30 RMK A01 T03260197  RH  047%=      5-min Rain = 0
KWT1 110303Z 14009KT 33/20 A30 RMK A01 T03250197  RH  047%=      5-min Rain = 0
KWT1 110304Z 15010KT 33/20 A30 RMK A01 T03250197  RH  047%=      5-min Rain = 0
KWT1 110305Z 15010KT 33/20 A30 RMK A01 T03250197  RH  047%=      5-min Rain = 0
KWT1 110306Z 14008KT 33/20 A30 RMK A01 T03250197  RH  047%=      5-min Rain = 0
KWT1 110307Z 15009KT 32/20 A30 RMK A01 T03240197  RH  047%=      5-min Rain = 0
KWT1 110308Z 14009KT 32/20 A30 RMK A01 T03240196  RH  047%=      5-min Rain = 0
KWT1 110309Z 16009KT 32/20 A30 RMK A01 T03240196  RH  047%=      5-min Rain = 0
KWT1 110310Z 15011KT 32/20 A30 RMK A01 T03240196  RH  047%=      5-min Rain = 0
KWT1 110311Z 15009KT 33/20 A30 RMK A01 T03250196  RH  047%=      5-min Rain = 0
KWT1 110312Z 15009KT 33/20 A30 RMK A01 T03250196  RH  047%=      5-min Rain = 0
KWT1 110313Z 15010KT 33/20 A3001 RMK A01 T03250196  RH  047%=      5-min Rain = 0
KWT1 110314Z 15010KT 33/20 A3001 RMK A01 T03250196  RH  047%=      5-min Rain = 0
KWT1 110315Z 14009KT 33/20 A3001 RMK A01 T03250196  RH  047%=      5-min Rain = 0
KWT1 110316Z 15009KT 32/20 A3001 RMK A01 T03240196  RH  047%=      5-min Rain = 0
KWT1 110317Z 15011KT 32/20 A3001 RMK A01 T03240196  RH  047%=      5-min Rain = 0
KWT1 110318Z 15009KT 32/20 A30 RMK A01 T03230196  RH  047%=      5-min Rain = 0
KWT1 110319Z 15010KT 32/20 A3001 RMK A01 T03230196  RH  047%=      5-min Rain = 0
KWT1 110320Z 15010KT 32/20 A3001 RMK A01 T03230196  RH  047%=      5-min Rain = 0
KWT1 110321Z 14008KT 32/20 A3001 RMK A01 T03230196  RH  047%=      5-min Rain = 0
KWT1 110322Z 15010KT 32/20 A3001 RMK A01 T03230196  RH  047%=      5-min Rain = 0
KWT1 110323Z 15009KT 32/20 A3001 RMK A01 T03230196  RH  047%=      5-min Rain = 0
KWT1 110324Z 15009KT 32/20 A3001 RMK A01 T03220196  RH  047%=      5-min Rain = 0
KWT1 110325Z 14009KT 32/20 A3001 RMK A01 T03220196  RH  047%=      5-min Rain = 0
KWT1 110326Z 15009KT 32/20 A3001 RMK A01 T03220197  RH  048%=      5-min Rain = 0
KWT1 110327Z 15008KT 32/20 A3001 RMK A01 T03210196  RH  048%=      5-min Rain = 0
KWT1 110328Z 15009KT 32/20 A3001 RMK A01 T03210196  RH  048%=      5-min Rain = 0
KWT1 110329Z 14007KT 32/20 A3001 RMK A01 T03210196  RH  048%=      5-min Rain = 0
KWT1 110330Z 15008KT 32/20 A3001 RMK A01 T03200196  RH  048%=      5-min Rain = 0
KWT1 110331Z 15007KT 32/20 A3001 RMK A01 T03200196  RH  048%=      5-min Rain = 0
KWT1 110332Z 15009KT 32/20 A3001 RMK A01 T03200196  RH  048%=      5-min Rain = 0
KWT1 110333Z 15008KT 32/20 A3001 RMK A01 T03200196  RH  048%=      5-min Rain = 0
KWT1 110334Z 15007KT 32/20 A3001 RMK A01 T03200196  RH  048%=      5-min Rain = 0
KWT1 110335Z 15009KT 32/20 A3001 RMK A01 T03200196  RH  048%=      5-min Rain = 0
KWT1 110336Z 15007KT 32/20 A3001 RMK A01 T03200195  RH  048%=      5-min Rain = 0
KWT1 110337Z 15008KT 32/20 A3001 RMK A01 T03200195  RH  048%=      5-min Rain = 0
KWT1 110338Z 15008KT 32/20 A3001 RMK A01 T03190195  RH  048%=      5-min Rain = 0
KWT1 110339Z 15007KT 32/20 A3001 RMK A01 T03200195  RH  048%=      5-min Rain = 0
KWT1 110340Z 15008KT 32/20 A3001 RMK A01 T03200195  RH  048%=      5-min Rain = 0
KWT1 110341Z 15008KT 32/20 A3001 RMK A01 T03200195  RH  048%=      5-min Rain = 0
KWT1 110342Z 15006KT 32/19 A3001 RMK A01 T03190194  RH  048%=      5-min Rain = 0
KWT1 110343Z 15007KT 32/20 A3001 RMK A01 T03190195  RH  048%=      5-min Rain = 0
KWT1 110344Z 15007KT 32/20 A3001 RMK A01 T03190195  RH  048%=      5-min Rain = 0
KWT1 110345Z 15007KT 32/20 A3001 RMK A01 T03190195  RH  048%=      5-min Rain = 0
KWT1 110346Z 15009KT 32/19 A3002 RMK A01 T03190194  RH  048%=      5-min Rain = 0
KWT1 110347Z 15007KT 32/20 A3002 RMK A01 T03190195  RH  048%=      5-min Rain = 0
KWT1 110348Z 15006KT 32/19 A3002 RMK A01 T03190194  RH  048%=      5-min Rain = 0
KWT1 110349Z 15007KT 32/19 A3002 RMK A01 T03180194  RH  048%=      5-min Rain = 0
KWT1 110350Z 14007KT 32/19 A3002 RMK A01 T03180194  RH  048%=      5-min Rain = 0
KWT1 110351Z 15006KT 32/19 A3002 RMK A01 T03180194  RH  048%=      5-min Rain = 0
KWT1 110352Z 15006KT 32/19 A3002 RMK A01 T03170194  RH  048%=      5-min Rain = 0
KWT1 110353Z 15007KT 32/19 A3002 RMK A01 T03170194  RH  048%=      5-min Rain = 0
KWT1 110354Z 14007KT 32/19 A3002 RMK A01 T03170194  RH  048%=      5-min Rain = 0
KWT1 110355Z 14007KT 32/19 A3002 RMK A01 T03170194  RH  048%=      5-min Rain = 0
KWT1 110356Z 15007KT 32/19 A3002 RMK A01 T03170194  RH  048%=      5-min Rain = 0
KWT1 110357Z 15007KT 32/19 A3002 RMK A01 T03170194  RH  048%=      5-min Rain = 0
KWT1 110358Z 14007KT 32/19 A3002 RMK A01 T03170194  RH  048%=      5-min Rain = 0
KWT1 110359Z 15007KT 32/19 A3002 RMK A01 T03160193  RH  048%=      5-min Rain = 0
KWT1 110400Z 14007KT 32/19 A3002 RMK A01 T03160193  RH  048%=      5-min Rain = 0
KWT1 110401Z 14008KT 32/19 A3002 RMK A01 T03160193  RH  048%=      5-min Rain = 0
KWT1 110402Z 14007KT 32/19 A3002 RMK A01 T03170193  RH  048%=      5-min Rain = 0
KWT1 110403Z 15007KT 32/19 A3002 RMK A01 T03160193  RH  048%=      5-min Rain = 0
KWT1 110404Z 15007KT 32/19 A3002 RMK A01 T03160193  RH  048%=      5-min Rain = 0
KWT1 110405Z 14007KT 32/19 A3002 RMK A01 T03160193  RH  048%=      5-min Rain = 0
KWT1 110406Z 15008KT 32/19 A3002 RMK A01 T03160193  RH  048%=      5-min Rain = 0
KWT1 110407Z 14007KT 32/19 A3002 RMK A01 T03160193  RH  048%=      5-min Rain = 0
KWT1 110408Z 15008KT 32/19 A3002 RMK A01 T03160193  RH  048%=      5-min Rain = 0
KWT1 110409Z 15008KT 32/19 A3002 RMK A01 T03150193  RH  048%=      5-min Rain = 0
KWT1 110410Z 15007KT 32/19 A3002 RMK A01 T03150192  RH  048%=      5-min Rain = 0
KWT1 110411Z 15008KT 32/19 A3002 RMK A01 T03150192  RH  048%=      5-min Rain = 0
KWT1 110412Z 15008KT 32/19 A3002 RMK A01 T03150192  RH  048%=      5-min Rain = 0
KWT1 110413Z 15008KT 32/19 A3002 RMK A01 T03160192  RH  048%=      5-min Rain = 0
KWT1 110414Z 15009KT 32/19 A3002 RMK A01 T03160192  RH  048%=      5-min Rain = 0
KWT1 110415Z 15008KT 32/19 A3002 RMK A01 T03160192  RH  048%=      5-min Rain = 0
KWT1 110416Z 15009KT 32/19 A3002 RMK A01 T03160192  RH  048%=      5-min Rain = 0
KWT1 110417Z 15008KT 32/19 A3002 RMK A01 T03160192  RH  048%=      5-min Rain = 0
KWT1 110418Z 16008KT 32/19 A3002 RMK A01 T03160192  RH  048%=      5-min Rain = 0
KWT1 110419Z 15008KT 32/19 A3002 RMK A01 T03150192  RH  048%=      5-min Rain = 0
KWT1 110420Z 16007KT 32/19 A3002 RMK A01 T03160192  RH  048%=      5-min Rain = 0
KWT1 110421Z 16008KT 32/19 A3002 RMK A01 T03160192  RH  048%=      5-min Rain = 0
KWT1 110422Z 16008KT 32/19 A3002 RMK A01 T03150192  RH  048%=      5-min Rain = 0
KWT1 110423Z 16010KT 32/19 A3002 RMK A01 T03150191  RH  048%=      5-min Rain = 0
KWT1 110424Z 16010KT 32/19 A3002 RMK A01 T03160192  RH  048%=      5-min Rain = 0
KWT1 110425Z 15009KT 32/19 A3002 RMK A01 T03160192  RH  048%=      5-min Rain = 0
KWT1 110426Z 16008KT 32/19 A3002 RMK A01 T03160192  RH  048%=      5-min Rain = 0
KWT1 110427Z 16008KT 32/19 A3002 RMK A01 T03160192  RH  048%=      5-min Rain = 0
KWT1 110428Z 16008KT 32/19 A3002 RMK A01 T03150192  RH  048%=      5-min Rain = 0
KWT1 110429Z 15010KT 32/19 A3002 RMK A01 T03150191  RH  048%=      5-min Rain = 0
KWT1 110430Z 16009KT 32/19 A3002 RMK A01 T03150192  RH  048%=      5-min Rain = 0
KWT1 110431Z 15008KT 32/19 A3002 RMK A01 T03150191  RH  048%=      5-min Rain = 0
KWT1 110432Z 16009KT 32/19 A3002 RMK A01 T03150192  RH  048%=      5-min Rain = 0
KWT1 110433Z 16009KT 32/19 A3002 RMK A01 T03150192  RH  048%=      5-min Rain = 0
KWT1 110434Z 16008KT 32/19 A3002 RMK A01 T03150192  RH  048%=      5-min Rain = 0
KWT1 110435Z 16008KT 32/19 A3002 RMK A01 T03150192  RH  048%=      5-min Rain = 0
KWT1 110436Z 16008KT 31/19 A3002 RMK A01 T03140192  RH  048%=      5-min Rain = 0
KWT1 110437Z 16009KT 31/19 A3002 RMK A01 T03140192  RH  048%=      5-min Rain = 0
KWT1 110438Z 16009KT 31/19 A3002 RMK A01 T03140192  RH  048%=      5-min Rain = 0
KWT1 110439Z 16008KT 31/19 A3002 RMK A01 T03140191  RH  048%=      5-min Rain = 0
KWT1 110440Z 16009KT 31/19 A3002 RMK A01 T03140192  RH  048%=      5-min Rain = 0
KWT1 110441Z 16008KT 31/19 A3002 RMK A01 T03130191  RH  048%=      5-min Rain = 0
KWT1 110442Z 16009KT 31/19 A3002 RMK A01 T03130191  RH  048%=      5-min Rain = 0
KWT1 110443Z 16009KT 31/19 A3002 RMK A01 T03130192  RH  048%=      5-min Rain = 0
KWT1 110444Z 16010KT 31/19 A3002 RMK A01 T03130192  RH  049%=      5-min Rain = 0
KWT1 110445Z 16009KT 31/19 A3002 RMK A01 T03130192  RH  049%=      5-min Rain = 0
KWT1 110446Z 17009KT 31/19 A3002 RMK A01 T03130192  RH  049%=      5-min Rain = 0
KWT1 110447Z 16008KT 31/19 A3002 RMK A01 T03120192  RH  049%=      5-min Rain = 0
KWT1 110448Z 17008KT 31/19 A3002 RMK A01 T03120192  RH  049%=      5-min Rain = 0
KWT1 110449Z 17008KT 31/19 A3002 RMK A01 T03110192  RH  049%=      5-min Rain = 0
KWT1 110450Z 16008KT 31/19 A3002 RMK A01 T03110192  RH  049%=      5-min Rain = 0
KWT1 110451Z 16009KT 31/19 A3001 RMK A01 T03100192  RH  049%=      5-min Rain = 0
KWT1 110452Z 16009KT 31/19 A3001 RMK A01 T03100192  RH  049%=      5-min Rain = 0
KWT1 110453Z 16009KT 31/19 A3001 RMK A01 T03100192  RH  049%=      5-min Rain = 0
KWT1 110454Z 16009KT 31/19 A3001 RMK A01 T03090191  RH  049%=      5-min Rain = 0
KWT1 110455Z 17009KT 31/19 A3001 RMK A01 T03100192  RH  049%=      5-min Rain = 0
KWT1 110456Z 16009KT 31/19 A3001 RMK A01 T03090192  RH  049%=      5-min Rain = 0
KWT1 110457Z 16007KT 31/19 A3001 RMK A01 T03090192  RH  049%=      5-min Rain = 0
KWT1 110458Z 16008KT 31/19 A3001 RMK A01 T03100192  RH  050%=      5-min Rain = 0
KWT1 110459Z 16010KT 31/19 A3001 RMK A01 T03090192  RH  050%=      5-min Rain = 0

Page generated in 0.1805 seconds.